RPC233 WAMM-RPLL
Flight info
| Callsign | RPC233 |
|---|---|
| Flight time | 4h 33m |
| Altitude | 18000 |
| Route | BONDA A461 TANAL/N0223F200 A461 ZAM/N0221F190 W3 IOO/N0224F200 DCT BUCAL BUCAL3R |
| Aircraft | C414/L-SBDFGRY/S |
Departure
| Time | 2026-04-17 02:49 |
|---|---|
| Airport | Sam Ratulangi International Airport (WAMM) |
Arrival
| Time | 2026-04-17 07:22 |
|---|---|
| Airport | Ninoy Aquino International Airport (RPLL) |
| Time | Latitude | Longitude | Altitude | Speed | Heading |
|---|---|---|---|---|---|
| 2026-04-17 02:38 | 1.54471 | 124.92337 | 331 ft | 0 kts | 272° |
| 2026-04-17 02:44 | 1.54470 | 124.92336 | 331 ft | 1 kts | 265° |
| 2026-04-17 02:45 | 1.54466 | 124.92332 | 331 ft | 2 kts | 201° |
| 2026-04-17 02:45 | 1.54433 | 124.92353 | 331 ft | 10 kts | 150° |
| 2026-04-17 02:45 | 1.54368 | 124.92403 | 330 ft | 13 kts | 152° |
| 2026-04-17 02:45 | 1.54270 | 124.92417 | 331 ft | 16 kts | 181° |
| 2026-04-17 02:46 | 1.54154 | 124.92414 | 331 ft | 18 kts | 182° |
| 2026-04-17 02:46 | 1.54069 | 124.92409 | 331 ft | 16 kts | 184° |
| 2026-04-17 02:46 | 1.53974 | 124.92425 | 330 ft | 14 kts | 155° |
| 2026-04-17 02:46 | 1.53869 | 124.92432 | 331 ft | 16 kts | 181° |
| 2026-04-17 02:47 | 1.53771 | 124.92432 | 328 ft | 10 kts | 165° |
| 2026-04-17 02:47 | 1.53744 | 124.92480 | 331 ft | 9 kts | 89° |
| 2026-04-17 02:47 | 1.53745 | 124.92547 | 329 ft | 11 kts | 89° |
| 2026-04-17 02:47 | 1.53785 | 124.92593 | 331 ft | 8 kts | 5° |
| 2026-04-17 02:48 | 1.53881 | 124.92596 | 332 ft | 29 kts | 2° |
| 2026-04-17 02:48 | 1.54263 | 124.92608 | 331 ft | 80 kts | 2° |
| 2026-04-17 02:48 | 1.54939 | 124.92628 | 418 ft | 109 kts | 360° |
| 2026-04-17 02:48 | 1.55753 | 124.92647 | 644 ft | 123 kts | 1° |
| 2026-04-17 02:49 | 1.56612 | 124.92663 | 1015 ft | 122 kts | 360° |
| 2026-04-17 02:49 | 1.57491 | 124.92641 | 1381 ft | 128 kts | 359° |
| 2026-04-17 02:49 | 1.58370 | 124.92612 | 1761 ft | 127 kts | 359° |
| 2026-04-17 02:49 | 1.59282 | 124.92577 | 2121 ft | 134 kts | 355° |
| 2026-04-17 02:50 | 1.60206 | 124.92504 | 2572 ft | 131 kts | 353° |
| 2026-04-17 02:50 | 1.61106 | 124.92399 | 2948 ft | 132 kts | 354° |
| 2026-04-17 02:50 | 1.62005 | 124.92356 | 3453 ft | 128 kts | 357° |
| 2026-04-17 02:50 | 1.62963 | 124.92259 | 3602 ft | 148 kts | 350° |
| 2026-04-17 02:51 | 1.64036 | 124.92096 | 3867 ft | 152 kts | 352° |
| 2026-04-17 02:51 | 1.65004 | 124.91994 | 4502 ft | 131 kts | 352° |
| 2026-04-17 02:51 | 1.65912 | 124.91894 | 4813 ft | 134 kts | 351° |
| 2026-04-17 02:51 | 1.66842 | 124.91800 | 5117 ft | 135 kts | 352° |
| 2026-04-17 02:52 | 1.67776 | 124.91707 | 5423 ft | 135 kts | 352° |
| 2026-04-17 02:52 | 1.68716 | 124.91614 | 5733 ft | 136 kts | 351° |
| 2026-04-17 02:52 | 1.69663 | 124.91519 | 6026 ft | 138 kts | 352° |
| 2026-04-17 02:52 | 1.70623 | 124.91423 | 6325 ft | 139 kts | 351° |
| 2026-04-17 02:53 | 1.71588 | 124.91328 | 6622 ft | 140 kts | 351° |
| 2026-04-17 02:53 | 1.72555 | 124.91232 | 6918 ft | 140 kts | 351° |
| 2026-04-17 02:53 | 1.73529 | 124.91134 | 7208 ft | 141 kts | 351° |
| 2026-04-17 02:53 | 1.74508 | 124.91037 | 7497 ft | 142 kts | 351° |
| 2026-04-17 02:54 | 1.75489 | 124.90940 | 7783 ft | 143 kts | 351° |
| 2026-04-17 02:54 | 1.76478 | 124.90841 | 8069 ft | 143 kts | 351° |
| 2026-04-17 02:54 | 1.77473 | 124.90743 | 8348 ft | 144 kts | 351° |
| 2026-04-17 02:54 | 1.78460 | 124.90645 | 8617 ft | 145 kts | 350° |
| 2026-04-17 02:55 | 1.79463 | 124.90544 | 8889 ft | 145 kts | 350° |
| 2026-04-17 02:55 | 1.80484 | 124.90443 | 9161 ft | 146 kts | 350° |
| 2026-04-17 02:55 | 1.81496 | 124.90342 | 9422 ft | 146 kts | 350° |
| 2026-04-17 02:55 | 1.82514 | 124.90241 | 9671 ft | 148 kts | 350° |
| 2026-04-17 02:56 | 1.83537 | 124.90139 | 9925 ft | 148 kts | 349° |
| 2026-04-17 02:56 | 1.84565 | 124.90036 | 10182 ft | 149 kts | 349° |
| 2026-04-17 02:56 | 1.85597 | 124.89934 | 10433 ft | 149 kts | 349° |
| 2026-04-17 02:56 | 1.86621 | 124.89832 | 10679 ft | 150 kts | 349° |
| 2026-04-17 02:57 | 1.87663 | 124.89728 | 10921 ft | 151 kts | 349° |
| 2026-04-17 02:57 | 1.88712 | 124.89624 | 11165 ft | 152 kts | 349° |
| 2026-04-17 02:57 | 1.89781 | 124.89517 | 11413 ft | 153 kts | 349° |
| 2026-04-17 02:57 | 1.90826 | 124.89414 | 11652 ft | 153 kts | 348° |
| 2026-04-17 02:58 | 1.91888 | 124.89308 | 11882 ft | 154 kts | 348° |
| 2026-04-17 02:58 | 1.92972 | 124.89200 | 12121 ft | 155 kts | 348° |
| 2026-04-17 02:58 | 1.94032 | 124.89095 | 12350 ft | 155 kts | 348° |
| 2026-04-17 02:58 | 1.95109 | 124.88987 | 12570 ft | 156 kts | 348° |
| 2026-04-17 02:59 | 1.96192 | 124.88879 | 12800 ft | 156 kts | 348° |
| 2026-04-17 02:59 | 1.97275 | 124.88772 | 13027 ft | 156 kts | 348° |
| 2026-04-17 02:59 | 1.98358 | 124.88664 | 13248 ft | 157 kts | 348° |
| 2026-04-17 02:59 | 1.99443 | 124.88556 | 13463 ft | 157 kts | 348° |
| 2026-04-17 03:00 | 2.00532 | 124.88447 | 13674 ft | 158 kts | 348° |
| 2026-04-17 03:00 | 2.01621 | 124.88340 | 13890 ft | 157 kts | 348° |
| 2026-04-17 03:00 | 2.02714 | 124.88231 | 14092 ft | 158 kts | 348° |
| 2026-04-17 03:00 | 2.03806 | 124.88121 | 14293 ft | 158 kts | 348° |
| 2026-04-17 03:01 | 2.04845 | 124.87853 | 14478 ft | 152 kts | 323° |
| 2026-04-17 03:01 | 2.05740 | 124.87302 | 14669 ft | 152 kts | 324° |
| 2026-04-17 03:01 | 2.06654 | 124.86773 | 14865 ft | 152 kts | 323° |
| 2026-04-17 03:01 | 2.07562 | 124.86236 | 15052 ft | 152 kts | 323° |
| 2026-04-17 03:02 | 2.08470 | 124.85698 | 15234 ft | 152 kts | 323° |
| 2026-04-17 03:02 | 2.09394 | 124.85150 | 15418 ft | 152 kts | 323° |
| 2026-04-17 03:02 | 2.10304 | 124.84609 | 15591 ft | 153 kts | 324° |
| 2026-04-17 03:02 | 2.11219 | 124.84067 | 15759 ft | 153 kts | 324° |
| 2026-04-17 03:03 | 2.12133 | 124.83524 | 15915 ft | 153 kts | 324° |
| 2026-04-17 03:03 | 2.13047 | 124.82984 | 16084 ft | 153 kts | 324° |
| 2026-04-17 03:03 | 2.13964 | 124.82438 | 16239 ft | 154 kts | 324° |
| 2026-04-17 03:03 | 2.14871 | 124.81899 | 16393 ft | 154 kts | 324° |
| 2026-04-17 03:04 | 2.15795 | 124.81350 | 16549 ft | 154 kts | 324° |
| 2026-04-17 03:04 | 2.16717 | 124.80804 | 16706 ft | 154 kts | 324° |
| 2026-04-17 03:04 | 2.17640 | 124.80256 | 16851 ft | 154 kts | 324° |
| 2026-04-17 03:04 | 2.18565 | 124.79707 | 16991 ft | 155 kts | 324° |
| 2026-04-17 03:05 | 2.19491 | 124.79156 | 17123 ft | 155 kts | 324° |
| 2026-04-17 03:05 | 2.20419 | 124.78606 | 17261 ft | 155 kts | 324° |
| 2026-04-17 03:05 | 2.21349 | 124.78055 | 17394 ft | 155 kts | 324° |
| 2026-04-17 03:05 | 2.22277 | 124.77503 | 17524 ft | 156 kts | 324° |
| 2026-04-17 03:06 | 2.23208 | 124.76951 | 17652 ft | 155 kts | 324° |
| 2026-04-17 03:06 | 2.24139 | 124.76399 | 17777 ft | 155 kts | 324° |
| 2026-04-17 03:06 | 2.25069 | 124.75846 | 17887 ft | 156 kts | 324° |
| 2026-04-17 03:06 | 2.26003 | 124.75293 | 17996 ft | 156 kts | 324° |
| 2026-04-17 03:07 | 2.26936 | 124.74738 | 18106 ft | 156 kts | 324° |
| 2026-04-17 03:07 | 2.27873 | 124.74184 | 18219 ft | 156 kts | 324° |
| 2026-04-17 03:07 | 2.28810 | 124.73628 | 18327 ft | 156 kts | 324° |
| 2026-04-17 03:07 | 2.29743 | 124.73072 | 18426 ft | 156 kts | 325° |
| 2026-04-17 03:08 | 2.30681 | 124.72515 | 18513 ft | 157 kts | 325° |
| 2026-04-17 03:08 | 2.31618 | 124.71959 | 18610 ft | 157 kts | 325° |
| 2026-04-17 03:08 | 2.32557 | 124.71402 | 18692 ft | 157 kts | 325° |
| 2026-04-17 03:08 | 2.33496 | 124.70846 | 18783 ft | 157 kts | 325° |
| 2026-04-17 03:09 | 2.34436 | 124.70286 | 18863 ft | 158 kts | 324° |
| 2026-04-17 03:09 | 2.35375 | 124.69729 | 18955 ft | 157 kts | 324° |
| 2026-04-17 03:09 | 2.36313 | 124.69173 | 19028 ft | 157 kts | 325° |
| 2026-04-17 03:09 | 2.37252 | 124.68615 | 19099 ft | 157 kts | 325° |
| 2026-04-17 03:10 | 2.38190 | 124.68058 | 19164 ft | 157 kts | 325° |
| 2026-04-17 03:10 | 2.39120 | 124.67506 | 19227 ft | 157 kts | 325° |
| 2026-04-17 03:10 | 2.40060 | 124.66948 | 19287 ft | 157 kts | 325° |
| 2026-04-17 03:10 | 2.41000 | 124.66390 | 19338 ft | 157 kts | 325° |
| 2026-04-17 03:11 | 2.41939 | 124.65833 | 19390 ft | 157 kts | 325° |
| 2026-04-17 03:11 | 2.42880 | 124.65274 | 19438 ft | 157 kts | 325° |
| 2026-04-17 03:11 | 2.43822 | 124.64715 | 19480 ft | 157 kts | 325° |
| 2026-04-17 03:11 | 2.44761 | 124.64157 | 19514 ft | 157 kts | 325° |
| 2026-04-17 03:12 | 2.45704 | 124.63597 | 19555 ft | 157 kts | 325° |
| 2026-04-17 03:12 | 2.46645 | 124.63039 | 19590 ft | 157 kts | 325° |
| 2026-04-17 03:12 | 2.47588 | 124.62480 | 19625 ft | 157 kts | 325° |
| 2026-04-17 03:12 | 2.48528 | 124.61921 | 19644 ft | 158 kts | 325° |
| 2026-04-17 03:13 | 2.49472 | 124.61360 | 19667 ft | 158 kts | 325° |
| 2026-04-17 03:13 | 2.50415 | 124.60800 | 19681 ft | 158 kts | 325° |
| 2026-04-17 03:13 | 2.51359 | 124.60240 | 19690 ft | 158 kts | 325° |
| 2026-04-17 03:13 | 2.52301 | 124.59680 | 19702 ft | 158 kts | 325° |
| 2026-04-17 03:14 | 2.53243 | 124.59122 | 19707 ft | 158 kts | 325° |
| 2026-04-17 03:14 | 2.54179 | 124.58565 | 19762 ft | 154 kts | 325° |
| 2026-04-17 03:14 | 2.55079 | 124.58031 | 19873 ft | 147 kts | 325° |
| 2026-04-17 03:14 | 2.55943 | 124.57517 | 19970 ft | 142 kts | 324° |
| 2026-04-17 03:15 | 2.56790 | 124.57014 | 19982 ft | 143 kts | 324° |
| 2026-04-17 03:15 | 2.57624 | 124.56520 | 19978 ft | 140 kts | 324° |
| 2026-04-17 03:15 | 2.58451 | 124.56027 | 19980 ft | 137 kts | 324° |
| 2026-04-17 03:15 | 2.59268 | 124.55542 | 19979 ft | 136 kts | 324° |
| 2026-04-17 03:16 | 2.60085 | 124.55057 | 19980 ft | 138 kts | 324° |
| 2026-04-17 03:16 | 2.60913 | 124.54564 | 19982 ft | 140 kts | 324° |
| 2026-04-17 03:16 | 2.61761 | 124.54060 | 19988 ft | 144 kts | 324° |
| 2026-04-17 03:16 | 2.62631 | 124.53543 | 20001 ft | 148 kts | 324° |
| 2026-04-17 03:17 | 2.63533 | 124.53007 | 19999 ft | 154 kts | 324° |
| 2026-04-17 03:17 | 2.64468 | 124.52453 | 20002 ft | 159 kts | 324° |
| 2026-04-17 03:17 | 2.65439 | 124.51876 | 19999 ft | 165 kts | 324° |
| 2026-04-17 03:17 | 2.66448 | 124.51277 | 20001 ft | 172 kts | 324° |
| 2026-04-17 03:18 | 2.67490 | 124.50658 | 20001 ft | 178 kts | 325° |
| 2026-04-17 03:18 | 2.68573 | 124.50016 | 19998 ft | 183 kts | 325° |
| 2026-04-17 03:18 | 2.69684 | 124.49356 | 20000 ft | 188 kts | 325° |
| 2026-04-17 03:18 | 2.70816 | 124.48683 | 19989 ft | 192 kts | 325° |
| 2026-04-17 03:19 | 2.71968 | 124.48000 | 19991 ft | 194 kts | 326° |
| 2026-04-17 03:19 | 2.73135 | 124.47307 | 19990 ft | 196 kts | 326° |
| 2026-04-17 03:19 | 2.74313 | 124.46608 | 19988 ft | 198 kts | 326° |
| 2026-04-17 03:19 | 2.75497 | 124.45904 | 19988 ft | 199 kts | 326° |
| 2026-04-17 03:20 | 2.76688 | 124.45195 | 19987 ft | 200 kts | 326° |
| 2026-04-17 03:20 | 2.77887 | 124.44484 | 19991 ft | 201 kts | 326° |
| 2026-04-17 03:20 | 2.79089 | 124.43770 | 19990 ft | 201 kts | 326° |
| 2026-04-17 03:20 | 2.80292 | 124.43056 | 19988 ft | 201 kts | 326° |
| 2026-04-17 03:21 | 2.81495 | 124.42341 | 19991 ft | 201 kts | 326° |
| 2026-04-17 03:21 | 2.82700 | 124.41625 | 19989 ft | 202 kts | 326° |
| 2026-04-17 03:21 | 2.83905 | 124.40909 | 19990 ft | 201 kts | 326° |
| 2026-04-17 03:21 | 2.85113 | 124.40190 | 19988 ft | 202 kts | 326° |
| 2026-04-17 03:22 | 2.86322 | 124.39472 | 19987 ft | 202 kts | 326° |
| 2026-04-17 03:22 | 2.87531 | 124.38754 | 19986 ft | 202 kts | 326° |
| 2026-04-17 03:22 | 2.88741 | 124.38035 | 19986 ft | 202 kts | 326° |
| 2026-04-17 03:22 | 2.89935 | 124.37325 | 19986 ft | 202 kts | 326° |
| 2026-04-17 03:23 | 2.91146 | 124.36605 | 19986 ft | 202 kts | 326° |
| 2026-04-17 03:23 | 2.92355 | 124.35887 | 19986 ft | 202 kts | 326° |
| 2026-04-17 03:23 | 2.93566 | 124.35168 | 19986 ft | 202 kts | 326° |
| 2026-04-17 03:23 | 2.94775 | 124.34449 | 19986 ft | 202 kts | 326° |
| 2026-04-17 03:24 | 2.95984 | 124.33731 | 19986 ft | 202 kts | 326° |
| 2026-04-17 03:24 | 2.97194 | 124.33011 | 19986 ft | 202 kts | 326° |
| 2026-04-17 03:24 | 2.98407 | 124.32291 | 19986 ft | 202 kts | 326° |
| 2026-04-17 03:24 | 2.99618 | 124.31571 | 19986 ft | 202 kts | 326° |
| 2026-04-17 03:25 | 3.00830 | 124.30850 | 19986 ft | 202 kts | 326° |
| 2026-04-17 03:25 | 3.02041 | 124.30131 | 19986 ft | 202 kts | 326° |
| 2026-04-17 03:25 | 3.03253 | 124.29410 | 19986 ft | 202 kts | 326° |
| 2026-04-17 03:25 | 3.04464 | 124.28690 | 19986 ft | 203 kts | 326° |
| 2026-04-17 03:26 | 3.05653 | 124.27983 | 19986 ft | 202 kts | 326° |
| 2026-04-17 03:26 | 3.06864 | 124.27263 | 19985 ft | 202 kts | 326° |
| 2026-04-17 03:26 | 3.08073 | 124.26544 | 19985 ft | 202 kts | 326° |
| 2026-04-17 03:26 | 3.09283 | 124.25825 | 19985 ft | 202 kts | 326° |
| 2026-04-17 03:27 | 3.10086 | 124.25348 | 19985 ft | 203 kts | 326° |
| 2026-04-17 03:27 | 3.11709 | 124.24383 | 19986 ft | 203 kts | 326° |
| 2026-04-17 03:27 | 3.12512 | 124.23905 | 19986 ft | 203 kts | 326° |
| 2026-04-17 03:27 | 3.14135 | 124.22940 | 19986 ft | 203 kts | 326° |
| 2026-04-17 03:28 | 3.15349 | 124.22218 | 19986 ft | 203 kts | 326° |
| 2026-04-17 03:28 | 3.16562 | 124.21497 | 19986 ft | 203 kts | 326° |
| 2026-04-17 03:28 | 3.17778 | 124.20775 | 19986 ft | 203 kts | 326° |
| 2026-04-17 03:28 | 3.18992 | 124.20053 | 19986 ft | 203 kts | 326° |
| 2026-04-17 03:29 | 3.20205 | 124.19331 | 19986 ft | 203 kts | 326° |
| 2026-04-17 03:29 | 3.21418 | 124.18609 | 19986 ft | 203 kts | 326° |
| 2026-04-17 03:29 | 3.22633 | 124.17888 | 19980 ft | 203 kts | 326° |
| 2026-04-17 03:29 | 3.23846 | 124.17166 | 19978 ft | 203 kts | 326° |
| 2026-04-17 03:30 | 3.25059 | 124.16444 | 19978 ft | 203 kts | 326° |
| 2026-04-17 03:30 | 3.26276 | 124.15721 | 19977 ft | 203 kts | 326° |
| 2026-04-17 03:30 | 3.27478 | 124.15006 | 19977 ft | 203 kts | 326° |
| 2026-04-17 03:30 | 3.28693 | 124.14284 | 19978 ft | 203 kts | 326° |
| 2026-04-17 03:31 | 3.29909 | 124.13561 | 19977 ft | 203 kts | 326° |
| 2026-04-17 03:31 | 3.31125 | 124.12838 | 19978 ft | 203 kts | 326° |
| 2026-04-17 03:31 | 3.32341 | 124.12114 | 19978 ft | 203 kts | 326° |
| 2026-04-17 03:31 | 3.33557 | 124.11390 | 19977 ft | 203 kts | 326° |
| 2026-04-17 03:32 | 3.34772 | 124.10667 | 19977 ft | 203 kts | 326° |
| 2026-04-17 03:32 | 3.35988 | 124.09944 | 19977 ft | 204 kts | 326° |
| 2026-04-17 03:32 | 3.37206 | 124.09221 | 19978 ft | 203 kts | 326° |
| 2026-04-17 03:32 | 3.38421 | 124.08497 | 19977 ft | 203 kts | 326° |
| 2026-04-17 03:33 | 3.39639 | 124.07773 | 19977 ft | 204 kts | 326° |
| 2026-04-17 03:33 | 3.40856 | 124.07048 | 19978 ft | 204 kts | 326° |
| 2026-04-17 03:33 | 3.42072 | 124.06324 | 19978 ft | 204 kts | 326° |
| 2026-04-17 03:33 | 3.42881 | 124.05843 | 19978 ft | 204 kts | 326° |
| 2026-04-17 03:34 | 3.44504 | 124.04877 | 19979 ft | 204 kts | 326° |
| 2026-04-17 03:34 | 3.45311 | 124.04398 | 19978 ft | 204 kts | 326° |
| 2026-04-17 03:34 | 3.46528 | 124.03673 | 19978 ft | 203 kts | 326° |
| 2026-04-17 03:34 | 3.47744 | 124.02949 | 19978 ft | 204 kts | 326° |
| 2026-04-17 03:35 | 3.48963 | 124.02224 | 19978 ft | 204 kts | 326° |
| 2026-04-17 03:35 | 3.50183 | 124.01499 | 19978 ft | 204 kts | 326° |
| 2026-04-17 03:35 | 3.51401 | 124.00773 | 19978 ft | 204 kts | 326° |
| 2026-04-17 03:35 | 3.52618 | 124.00049 | 19979 ft | 204 kts | 326° |
| 2026-04-17 03:36 | 3.55055 | 123.98599 | 19979 ft | 204 kts | 326° |
| 2026-04-17 03:36 | 3.56270 | 123.97876 | 19979 ft | 203 kts | 326° |
| 2026-04-17 03:36 | 3.57486 | 123.97151 | 19978 ft | 204 kts | 326° |
| 2026-04-17 03:37 | 3.58704 | 123.96426 | 19978 ft | 204 kts | 326° |
| 2026-04-17 03:37 | 3.59922 | 123.95703 | 19981 ft | 204 kts | 326° |
| 2026-04-17 03:37 | 3.61139 | 123.94978 | 19980 ft | 203 kts | 326° |
| 2026-04-17 03:37 | 3.62352 | 123.94257 | 19976 ft | 203 kts | 326° |
| 2026-04-17 03:38 | 3.63565 | 123.93534 | 19973 ft | 203 kts | 326° |
| 2026-04-17 03:38 | 3.64780 | 123.92810 | 19972 ft | 203 kts | 326° |
| 2026-04-17 03:38 | 3.65996 | 123.92086 | 19972 ft | 203 kts | 326° |
| 2026-04-17 03:38 | 3.67211 | 123.91363 | 19972 ft | 203 kts | 326° |
| 2026-04-17 03:39 | 3.68428 | 123.90638 | 19971 ft | 203 kts | 326° |
| 2026-04-17 03:39 | 3.69646 | 123.89913 | 19971 ft | 204 kts | 326° |
| 2026-04-17 03:39 | 3.70865 | 123.89188 | 19971 ft | 204 kts | 326° |
| 2026-04-17 03:39 | 3.72082 | 123.88462 | 19971 ft | 204 kts | 326° |
| 2026-04-17 03:40 | 3.73300 | 123.87738 | 19972 ft | 204 kts | 326° |
| 2026-04-17 03:40 | 3.74506 | 123.87019 | 19970 ft | 204 kts | 326° |
| 2026-04-17 03:40 | 3.75728 | 123.86292 | 19970 ft | 204 kts | 326° |
| 2026-04-17 03:40 | 3.76950 | 123.85565 | 19970 ft | 204 kts | 326° |
| 2026-04-17 03:41 | 3.78172 | 123.84837 | 19970 ft | 204 kts | 326° |
| 2026-04-17 03:41 | 3.79393 | 123.84109 | 19970 ft | 204 kts | 326° |
| 2026-04-17 03:41 | 3.80615 | 123.83381 | 19970 ft | 204 kts | 326° |
| 2026-04-17 03:41 | 3.81835 | 123.82655 | 19970 ft | 204 kts | 326° |
| 2026-04-17 03:42 | 3.83055 | 123.81928 | 19970 ft | 204 kts | 326° |
| 2026-04-17 03:42 | 3.84277 | 123.81201 | 19970 ft | 204 kts | 326° |
| 2026-04-17 03:42 | 3.85497 | 123.80474 | 19970 ft | 204 kts | 326° |
| 2026-04-17 03:42 | 3.86717 | 123.79747 | 19970 ft | 204 kts | 326° |
| 2026-04-17 03:43 | 3.87937 | 123.79020 | 19970 ft | 204 kts | 326° |
| 2026-04-17 03:43 | 3.89157 | 123.78294 | 19971 ft | 204 kts | 326° |
| 2026-04-17 03:43 | 3.90376 | 123.77567 | 19970 ft | 204 kts | 326° |
| 2026-04-17 03:43 | 3.91595 | 123.76840 | 19967 ft | 204 kts | 326° |
| 2026-04-17 03:44 | 3.92817 | 123.76112 | 19965 ft | 204 kts | 326° |
| 2026-04-17 03:44 | 3.94039 | 123.75386 | 19964 ft | 204 kts | 326° |
| 2026-04-17 03:44 | 3.95261 | 123.74658 | 19963 ft | 204 kts | 326° |
| 2026-04-17 03:44 | 3.96482 | 123.73929 | 19963 ft | 204 kts | 326° |
| 2026-04-17 03:45 | 3.97704 | 123.73201 | 19963 ft | 204 kts | 326° |
| 2026-04-17 03:45 | 3.98926 | 123.72473 | 19963 ft | 204 kts | 326° |
| 2026-04-17 03:45 | 4.00149 | 123.71750 | 19963 ft | 204 kts | 328° |
| 2026-04-17 03:45 | 4.01396 | 123.71065 | 19963 ft | 204 kts | 327° |
| 2026-04-17 03:46 | 4.02625 | 123.70354 | 19963 ft | 204 kts | 327° |
| 2026-04-17 03:46 | 4.03860 | 123.69649 | 19963 ft | 204 kts | 327° |
| 2026-04-17 03:46 | 4.05097 | 123.68949 | 19963 ft | 204 kts | 327° |
| 2026-04-17 03:46 | 4.06335 | 123.68250 | 19963 ft | 204 kts | 327° |
| 2026-04-17 03:47 | 4.07575 | 123.67549 | 19963 ft | 204 kts | 327° |
| 2026-04-17 03:47 | 4.08812 | 123.66848 | 19963 ft | 204 kts | 327° |
| 2026-04-17 03:47 | 4.10050 | 123.66147 | 19963 ft | 205 kts | 327° |
| 2026-04-17 03:47 | 4.11272 | 123.65457 | 19963 ft | 205 kts | 327° |
| 2026-04-17 03:48 | 4.12510 | 123.64756 | 19963 ft | 205 kts | 327° |
| 2026-04-17 03:48 | 4.13749 | 123.64055 | 19963 ft | 204 kts | 327° |
| 2026-04-17 03:48 | 4.14988 | 123.63354 | 19963 ft | 204 kts | 327° |
| 2026-04-17 03:48 | 4.16225 | 123.62655 | 19963 ft | 204 kts | 327° |
| 2026-04-17 03:49 | 4.17463 | 123.61953 | 19963 ft | 204 kts | 327° |
| 2026-04-17 03:49 | 4.18701 | 123.61252 | 19964 ft | 204 kts | 327° |
| 2026-04-17 03:49 | 4.19937 | 123.60553 | 19964 ft | 204 kts | 327° |
| 2026-04-17 03:49 | 4.21173 | 123.59854 | 19964 ft | 204 kts | 327° |
| 2026-04-17 03:50 | 4.22407 | 123.59155 | 19964 ft | 204 kts | 327° |
| 2026-04-17 03:50 | 4.23643 | 123.58456 | 19959 ft | 204 kts | 327° |
| 2026-04-17 03:50 | 4.24878 | 123.57757 | 19959 ft | 204 kts | 327° |
| 2026-04-17 03:50 | 4.26111 | 123.57059 | 19959 ft | 204 kts | 327° |
| 2026-04-17 03:51 | 4.27342 | 123.56362 | 19959 ft | 204 kts | 327° |
| 2026-04-17 03:51 | 4.28576 | 123.55663 | 19959 ft | 204 kts | 327° |
| 2026-04-17 03:51 | 4.29811 | 123.54965 | 19958 ft | 204 kts | 327° |
| 2026-04-17 03:51 | 4.31044 | 123.54267 | 19959 ft | 204 kts | 327° |
| 2026-04-17 03:52 | 4.32278 | 123.53568 | 19959 ft | 204 kts | 327° |
| 2026-04-17 03:52 | 4.33516 | 123.52867 | 19959 ft | 204 kts | 327° |
| 2026-04-17 03:52 | 4.34752 | 123.52167 | 19959 ft | 204 kts | 327° |
| 2026-04-17 03:52 | 4.35988 | 123.51467 | 19959 ft | 204 kts | 327° |
| 2026-04-17 03:53 | 4.37225 | 123.50766 | 19960 ft | 204 kts | 327° |
| 2026-04-17 03:53 | 4.38465 | 123.50065 | 19960 ft | 204 kts | 327° |
| 2026-04-17 03:53 | 4.39701 | 123.49365 | 19960 ft | 204 kts | 327° |
| 2026-04-17 03:53 | 4.40937 | 123.48665 | 19960 ft | 204 kts | 327° |
| 2026-04-17 03:54 | 4.42172 | 123.47965 | 19960 ft | 204 kts | 327° |
| 2026-04-17 03:54 | 4.43410 | 123.47264 | 19960 ft | 204 kts | 327° |
| 2026-04-17 03:54 | 4.44647 | 123.46563 | 19960 ft | 204 kts | 327° |
| 2026-04-17 03:54 | 4.45884 | 123.45864 | 19960 ft | 204 kts | 327° |
| 2026-04-17 03:55 | 4.47119 | 123.45163 | 19960 ft | 204 kts | 327° |
| 2026-04-17 03:55 | 4.48354 | 123.44463 | 19960 ft | 204 kts | 327° |
| 2026-04-17 03:55 | 4.49590 | 123.43763 | 19960 ft | 204 kts | 327° |
| 2026-04-17 03:55 | 4.50825 | 123.43064 | 19960 ft | 204 kts | 327° |
| 2026-04-17 03:56 | 4.52060 | 123.42364 | 19960 ft | 204 kts | 327° |
| 2026-04-17 03:56 | 4.53296 | 123.41665 | 19960 ft | 204 kts | 327° |
| 2026-04-17 03:56 | 4.54532 | 123.40964 | 19960 ft | 204 kts | 327° |
| 2026-04-17 03:56 | 4.55767 | 123.40264 | 19960 ft | 204 kts | 327° |
| 2026-04-17 03:57 | 4.57001 | 123.39564 | 19960 ft | 204 kts | 327° |
| 2026-04-17 03:57 | 4.58233 | 123.38866 | 19960 ft | 203 kts | 327° |
| 2026-04-17 03:57 | 4.59466 | 123.38168 | 19960 ft | 204 kts | 327° |
| 2026-04-17 03:57 | 4.60683 | 123.37478 | 19960 ft | 204 kts | 327° |
| 2026-04-17 03:58 | 4.61933 | 123.36770 | 19959 ft | 204 kts | 327° |
| 2026-04-17 03:58 | 4.63151 | 123.36080 | 19960 ft | 204 kts | 327° |
| 2026-04-17 03:58 | 4.64386 | 123.35380 | 19960 ft | 204 kts | 327° |
| 2026-04-17 03:58 | 4.65619 | 123.34681 | 19960 ft | 204 kts | 327° |
| 2026-04-17 03:59 | 4.66849 | 123.33984 | 19960 ft | 204 kts | 328° |
| 2026-04-17 03:59 | 4.68084 | 123.33284 | 19960 ft | 204 kts | 328° |
| 2026-04-17 03:59 | 4.69321 | 123.32582 | 19960 ft | 204 kts | 328° |
| 2026-04-17 03:59 | 4.70558 | 123.31882 | 19960 ft | 204 kts | 328° |
| 2026-04-17 04:00 | 4.71791 | 123.31183 | 19960 ft | 204 kts | 328° |
| 2026-04-17 04:00 | 4.73025 | 123.30483 | 19959 ft | 203 kts | 328° |
| 2026-04-17 04:00 | 4.74258 | 123.29783 | 19959 ft | 204 kts | 328° |
| 2026-04-17 04:00 | 4.75493 | 123.29084 | 19959 ft | 204 kts | 328° |
| 2026-04-17 04:01 | 4.76728 | 123.28384 | 19959 ft | 204 kts | 328° |
| 2026-04-17 04:01 | 4.77964 | 123.27683 | 19959 ft | 204 kts | 328° |
| 2026-04-17 04:01 | 4.79200 | 123.26982 | 19960 ft | 204 kts | 328° |
| 2026-04-17 04:01 | 4.80435 | 123.26282 | 19959 ft | 204 kts | 328° |
| 2026-04-17 04:02 | 4.81669 | 123.25583 | 19959 ft | 204 kts | 328° |
| 2026-04-17 04:02 | 4.82903 | 123.24884 | 19960 ft | 204 kts | 327° |
| 2026-04-17 04:02 | 4.84136 | 123.24184 | 19960 ft | 203 kts | 327° |
| 2026-04-17 04:02 | 4.85369 | 123.23483 | 19960 ft | 203 kts | 327° |
| 2026-04-17 04:03 | 4.86597 | 123.22787 | 19960 ft | 204 kts | 328° |
| 2026-04-17 04:03 | 4.87830 | 123.22088 | 19959 ft | 204 kts | 328° |
| 2026-04-17 04:03 | 4.89065 | 123.21387 | 19959 ft | 204 kts | 328° |
| 2026-04-17 04:03 | 4.90299 | 123.20688 | 19959 ft | 204 kts | 328° |
| 2026-04-17 04:04 | 4.91515 | 123.19999 | 19961 ft | 204 kts | 328° |
| 2026-04-17 04:04 | 4.92749 | 123.19299 | 19962 ft | 204 kts | 328° |
| 2026-04-17 04:04 | 4.93981 | 123.18599 | 19961 ft | 203 kts | 328° |
| 2026-04-17 04:04 | 4.95213 | 123.17900 | 19957 ft | 204 kts | 328° |
| 2026-04-17 04:05 | 4.96449 | 123.17199 | 19949 ft | 204 kts | 328° |
| 2026-04-17 04:05 | 4.97685 | 123.16498 | 19948 ft | 204 kts | 328° |
| 2026-04-17 04:05 | 4.98922 | 123.15795 | 19948 ft | 204 kts | 328° |
| 2026-04-17 04:05 | 5.00158 | 123.15094 | 19948 ft | 204 kts | 328° |
| 2026-04-17 04:06 | 5.01391 | 123.14395 | 19948 ft | 204 kts | 328° |
| 2026-04-17 04:06 | 5.02627 | 123.13693 | 19948 ft | 204 kts | 328° |
| 2026-04-17 04:06 | 5.03863 | 123.12992 | 19948 ft | 204 kts | 328° |
| 2026-04-17 04:06 | 5.05098 | 123.12291 | 19948 ft | 204 kts | 328° |
| 2026-04-17 04:07 | 5.06331 | 123.11591 | 19948 ft | 204 kts | 328° |
| 2026-04-17 04:07 | 5.07566 | 123.10889 | 19948 ft | 204 kts | 328° |
| 2026-04-17 04:07 | 5.08800 | 123.10189 | 19948 ft | 204 kts | 328° |
| 2026-04-17 04:07 | 5.10037 | 123.09489 | 19949 ft | 204 kts | 328° |
| 2026-04-17 04:08 | 5.11274 | 123.08786 | 19949 ft | 204 kts | 328° |
| 2026-04-17 04:08 | 5.12510 | 123.08084 | 19949 ft | 204 kts | 328° |
| 2026-04-17 04:08 | 5.13745 | 123.07383 | 19949 ft | 204 kts | 328° |
| 2026-04-17 04:08 | 5.14980 | 123.06682 | 19948 ft | 204 kts | 328° |
| 2026-04-17 04:09 | 5.16210 | 123.05983 | 19948 ft | 204 kts | 328° |
| 2026-04-17 04:09 | 5.17446 | 123.05281 | 19948 ft | 204 kts | 328° |
| 2026-04-17 04:09 | 5.18681 | 123.04580 | 19948 ft | 204 kts | 328° |
| 2026-04-17 04:09 | 5.19915 | 123.03879 | 19948 ft | 204 kts | 328° |
| 2026-04-17 04:10 | 5.21133 | 123.03188 | 19948 ft | 204 kts | 328° |
| 2026-04-17 04:10 | 5.22368 | 123.02487 | 19948 ft | 204 kts | 328° |
| 2026-04-17 04:10 | 5.23601 | 123.01786 | 19948 ft | 204 kts | 328° |
| 2026-04-17 04:10 | 5.24837 | 123.01084 | 19948 ft | 204 kts | 328° |
| 2026-04-17 04:11 | 5.26073 | 123.00383 | 19948 ft | 204 kts | 328° |
| 2026-04-17 04:11 | 5.27308 | 122.99681 | 19948 ft | 204 kts | 328° |
| 2026-04-17 04:11 | 5.28545 | 122.98979 | 19948 ft | 204 kts | 328° |
| 2026-04-17 04:11 | 5.29781 | 122.98277 | 19948 ft | 204 kts | 328° |
| 2026-04-17 04:12 | 5.31015 | 122.97574 | 19948 ft | 204 kts | 328° |
| 2026-04-17 04:12 | 5.32250 | 122.96874 | 19948 ft | 204 kts | 328° |
| 2026-04-17 04:12 | 5.33486 | 122.96171 | 19948 ft | 204 kts | 328° |
| 2026-04-17 04:12 | 5.34720 | 122.95471 | 19948 ft | 204 kts | 328° |
| 2026-04-17 04:13 | 5.35954 | 122.94770 | 19948 ft | 204 kts | 328° |
| 2026-04-17 04:13 | 5.37188 | 122.94068 | 19948 ft | 204 kts | 328° |
| 2026-04-17 04:13 | 5.38423 | 122.93367 | 19948 ft | 204 kts | 328° |
| 2026-04-17 04:13 | 5.39657 | 122.92665 | 19948 ft | 204 kts | 328° |
| 2026-04-17 04:14 | 5.40891 | 122.91964 | 19948 ft | 204 kts | 328° |
| 2026-04-17 04:14 | 5.42124 | 122.91263 | 19948 ft | 204 kts | 328° |
| 2026-04-17 04:14 | 5.43358 | 122.90562 | 19948 ft | 203 kts | 328° |
| 2026-04-17 04:14 | 5.44574 | 122.89870 | 19948 ft | 204 kts | 328° |
| 2026-04-17 04:15 | 5.45808 | 122.89170 | 19948 ft | 204 kts | 328° |
| 2026-04-17 04:15 | 5.47041 | 122.88469 | 19948 ft | 204 kts | 328° |
| 2026-04-17 04:15 | 5.48278 | 122.87766 | 19940 ft | 204 kts | 328° |
| 2026-04-17 04:15 | 5.49515 | 122.87061 | 19940 ft | 204 kts | 328° |
| 2026-04-17 04:16 | 5.50751 | 122.86360 | 19940 ft | 204 kts | 328° |
| 2026-04-17 04:16 | 5.51988 | 122.85657 | 19941 ft | 204 kts | 328° |
| 2026-04-17 04:16 | 5.53225 | 122.84954 | 19941 ft | 204 kts | 328° |
| 2026-04-17 04:16 | 5.54460 | 122.84252 | 19941 ft | 204 kts | 328° |
| 2026-04-17 04:17 | 5.55695 | 122.83549 | 19941 ft | 204 kts | 328° |
| 2026-04-17 04:17 | 5.56930 | 122.82847 | 19941 ft | 204 kts | 328° |
| 2026-04-17 04:17 | 5.58163 | 122.82144 | 19941 ft | 204 kts | 328° |
| 2026-04-17 04:17 | 5.59397 | 122.81443 | 19941 ft | 204 kts | 328° |
| 2026-04-17 04:18 | 5.60629 | 122.80743 | 19941 ft | 204 kts | 328° |
| 2026-04-17 04:18 | 5.61863 | 122.80041 | 19942 ft | 204 kts | 328° |
| 2026-04-17 04:18 | 5.63097 | 122.79339 | 19941 ft | 204 kts | 328° |
| 2026-04-17 04:18 | 5.64330 | 122.78637 | 19941 ft | 204 kts | 328° |
| 2026-04-17 04:19 | 5.65564 | 122.77935 | 19941 ft | 204 kts | 328° |
| 2026-04-17 04:19 | 5.66798 | 122.77234 | 19941 ft | 204 kts | 328° |
| 2026-04-17 04:19 | 5.68031 | 122.76532 | 19941 ft | 204 kts | 328° |
| 2026-04-17 04:19 | 5.69266 | 122.75829 | 19941 ft | 204 kts | 328° |
| 2026-04-17 04:20 | 5.70498 | 122.75129 | 19941 ft | 204 kts | 328° |
| 2026-04-17 04:20 | 5.71732 | 122.74427 | 19941 ft | 204 kts | 328° |
| 2026-04-17 04:20 | 5.72965 | 122.73725 | 19941 ft | 204 kts | 328° |
| 2026-04-17 04:20 | 5.74201 | 122.73022 | 19941 ft | 204 kts | 328° |
| 2026-04-17 04:21 | 5.75434 | 122.72320 | 19941 ft | 204 kts | 328° |
| 2026-04-17 04:21 | 5.76671 | 122.71616 | 19941 ft | 204 kts | 328° |
| 2026-04-17 04:21 | 5.77908 | 122.70912 | 19942 ft | 204 kts | 328° |
| 2026-04-17 04:21 | 5.79143 | 122.70210 | 19942 ft | 204 kts | 328° |
| 2026-04-17 04:22 | 5.79963 | 122.69744 | 19942 ft | 204 kts | 328° |
| 2026-04-17 04:22 | 5.81199 | 122.69040 | 19942 ft | 204 kts | 328° |
| 2026-04-17 04:22 | 5.82434 | 122.68336 | 19942 ft | 204 kts | 328° |
| 2026-04-17 04:22 | 5.83669 | 122.67633 | 19942 ft | 204 kts | 328° |
| 2026-04-17 04:23 | 5.84907 | 122.66928 | 19942 ft | 204 kts | 328° |
| 2026-04-17 04:23 | 5.86143 | 122.66225 | 19942 ft | 204 kts | 328° |
| 2026-04-17 04:23 | 5.87380 | 122.65520 | 19942 ft | 204 kts | 328° |
| 2026-04-17 04:23 | 5.88616 | 122.64817 | 19942 ft | 204 kts | 328° |
| 2026-04-17 04:24 | 5.89852 | 122.64113 | 19942 ft | 204 kts | 328° |
| 2026-04-17 04:24 | 5.91488 | 122.63181 | 19942 ft | 204 kts | 328° |
| 2026-04-17 04:24 | 5.92322 | 122.62707 | 19942 ft | 204 kts | 328° |
| 2026-04-17 04:24 | 5.93560 | 122.62002 | 19943 ft | 204 kts | 328° |
| 2026-04-17 04:25 | 5.95196 | 122.61070 | 19943 ft | 204 kts | 328° |
| 2026-04-17 04:25 | 5.96031 | 122.60594 | 19943 ft | 204 kts | 328° |
| 2026-04-17 04:25 | 5.97266 | 122.59890 | 19943 ft | 204 kts | 328° |
| 2026-04-17 04:25 | 5.98502 | 122.59187 | 19943 ft | 204 kts | 328° |
| 2026-04-17 04:26 | 5.99737 | 122.58484 | 19943 ft | 204 kts | 328° |
| 2026-04-17 04:26 | 6.00971 | 122.57780 | 19942 ft | 204 kts | 329° |
| 2026-04-17 04:26 | 6.02208 | 122.57075 | 19942 ft | 204 kts | 329° |
| 2026-04-17 04:26 | 6.03445 | 122.56371 | 19942 ft | 205 kts | 329° |
| 2026-04-17 04:27 | 6.04684 | 122.55665 | 19942 ft | 205 kts | 329° |
| 2026-04-17 04:27 | 6.05923 | 122.54959 | 19942 ft | 205 kts | 329° |
| 2026-04-17 04:27 | 6.07163 | 122.54252 | 19942 ft | 205 kts | 329° |
| 2026-04-17 04:27 | 6.08384 | 122.53556 | 19942 ft | 204 kts | 329° |
| 2026-04-17 04:28 | 6.09622 | 122.52852 | 19943 ft | 204 kts | 329° |
| 2026-04-17 04:28 | 6.10858 | 122.52147 | 19943 ft | 204 kts | 329° |
| 2026-04-17 04:28 | 6.12096 | 122.51441 | 19943 ft | 204 kts | 329° |
| 2026-04-17 04:28 | 6.13335 | 122.50735 | 19943 ft | 204 kts | 329° |
| 2026-04-17 04:29 | 6.14570 | 122.50031 | 19942 ft | 204 kts | 329° |
| 2026-04-17 04:29 | 6.15805 | 122.49327 | 19941 ft | 204 kts | 329° |
| 2026-04-17 04:29 | 6.17041 | 122.48622 | 19941 ft | 204 kts | 329° |
| 2026-04-17 04:29 | 6.18276 | 122.47918 | 19941 ft | 204 kts | 329° |
| 2026-04-17 04:30 | 6.19504 | 122.47218 | 19941 ft | 204 kts | 329° |
| 2026-04-17 04:30 | 6.20739 | 122.46514 | 19941 ft | 204 kts | 329° |
| 2026-04-17 04:30 | 6.21975 | 122.45810 | 19941 ft | 205 kts | 329° |
| 2026-04-17 04:30 | 6.23215 | 122.45103 | 19942 ft | 204 kts | 329° |
| 2026-04-17 04:31 | 6.24449 | 122.44399 | 19942 ft | 204 kts | 329° |
| 2026-04-17 04:31 | 6.25684 | 122.43695 | 19942 ft | 204 kts | 329° |
| 2026-04-17 04:31 | 6.26922 | 122.42989 | 19942 ft | 204 kts | 329° |
| 2026-04-17 04:31 | 6.28157 | 122.42284 | 19942 ft | 204 kts | 329° |
| 2026-04-17 04:32 | 6.29393 | 122.41579 | 19942 ft | 204 kts | 329° |
| 2026-04-17 04:32 | 6.30631 | 122.40873 | 19942 ft | 204 kts | 329° |
| 2026-04-17 04:32 | 6.31868 | 122.40168 | 19942 ft | 204 kts | 329° |
| 2026-04-17 04:32 | 6.33104 | 122.39462 | 19942 ft | 204 kts | 329° |
| 2026-04-17 04:33 | 6.34341 | 122.38757 | 19942 ft | 204 kts | 329° |
| 2026-04-17 04:33 | 6.35574 | 122.38053 | 19942 ft | 204 kts | 329° |
| 2026-04-17 04:33 | 6.36814 | 122.37345 | 19941 ft | 205 kts | 329° |
| 2026-04-17 04:33 | 6.38056 | 122.36638 | 19941 ft | 205 kts | 329° |
| 2026-04-17 04:34 | 6.40531 | 122.35224 | 19941 ft | 205 kts | 329° |
| 2026-04-17 04:34 | 6.41773 | 122.34516 | 19941 ft | 205 kts | 329° |
| 2026-04-17 04:34 | 6.43013 | 122.33809 | 19941 ft | 205 kts | 329° |
| 2026-04-17 04:35 | 6.44254 | 122.33100 | 19941 ft | 205 kts | 329° |
| 2026-04-17 04:35 | 6.45494 | 122.32392 | 19941 ft | 205 kts | 329° |
| 2026-04-17 04:35 | 6.46736 | 122.31684 | 19941 ft | 205 kts | 329° |
| 2026-04-17 04:35 | 6.47978 | 122.30974 | 19941 ft | 205 kts | 329° |
| 2026-04-17 04:36 | 6.49218 | 122.30267 | 19941 ft | 205 kts | 329° |
| 2026-04-17 04:36 | 6.50459 | 122.29558 | 19941 ft | 205 kts | 329° |
| 2026-04-17 04:36 | 6.51703 | 122.28847 | 19942 ft | 205 kts | 329° |
| 2026-04-17 04:36 | 6.52944 | 122.28138 | 19942 ft | 205 kts | 329° |
| 2026-04-17 04:37 | 6.54189 | 122.27428 | 19942 ft | 205 kts | 329° |
| 2026-04-17 04:37 | 6.55432 | 122.26718 | 19942 ft | 205 kts | 329° |
| 2026-04-17 04:37 | 6.56671 | 122.26010 | 19941 ft | 205 kts | 329° |
| 2026-04-17 04:37 | 6.57913 | 122.25301 | 19942 ft | 205 kts | 329° |
| 2026-04-17 04:38 | 6.59154 | 122.24592 | 19942 ft | 205 kts | 329° |
| 2026-04-17 04:38 | 6.60395 | 122.23884 | 19942 ft | 205 kts | 329° |
| 2026-04-17 04:38 | 6.61637 | 122.23175 | 19942 ft | 205 kts | 329° |
| 2026-04-17 04:38 | 6.62877 | 122.22467 | 19941 ft | 205 kts | 329° |
| 2026-04-17 04:39 | 6.64068 | 122.21786 | 19941 ft | 205 kts | 329° |
| 2026-04-17 04:39 | 6.65317 | 122.21071 | 19940 ft | 206 kts | 329° |
| 2026-04-17 04:39 | 6.66561 | 122.20361 | 19941 ft | 206 kts | 329° |
| 2026-04-17 04:39 | 6.67789 | 122.19660 | 19941 ft | 206 kts | 329° |
| 2026-04-17 04:40 | 6.69029 | 122.18952 | 19941 ft | 205 kts | 329° |
| 2026-04-17 04:40 | 6.70270 | 122.18242 | 19941 ft | 206 kts | 329° |
| 2026-04-17 04:40 | 6.71515 | 122.17530 | 19941 ft | 206 kts | 329° |
| 2026-04-17 04:40 | 6.72753 | 122.16822 | 19941 ft | 206 kts | 329° |
| 2026-04-17 04:41 | 6.74006 | 122.16106 | 19942 ft | 206 kts | 329° |
| 2026-04-17 04:41 | 6.75254 | 122.15393 | 19942 ft | 206 kts | 329° |
| 2026-04-17 04:41 | 6.76500 | 122.14681 | 19942 ft | 206 kts | 329° |
| 2026-04-17 04:41 | 6.77746 | 122.13968 | 19942 ft | 206 kts | 329° |
| 2026-04-17 04:42 | 6.78991 | 122.13256 | 19942 ft | 206 kts | 329° |
| 2026-04-17 04:42 | 6.80235 | 122.12545 | 19942 ft | 206 kts | 329° |
| 2026-04-17 04:42 | 6.81482 | 122.11831 | 19942 ft | 206 kts | 329° |
| 2026-04-17 04:42 | 6.82728 | 122.11119 | 19942 ft | 206 kts | 329° |
| 2026-04-17 04:43 | 6.83974 | 122.10407 | 19942 ft | 206 kts | 329° |
| 2026-04-17 04:43 | 6.85220 | 122.09695 | 19943 ft | 206 kts | 329° |
| 2026-04-17 04:43 | 6.86467 | 122.08982 | 19943 ft | 206 kts | 329° |
| 2026-04-17 04:43 | 6.87713 | 122.08269 | 19943 ft | 206 kts | 329° |
| 2026-04-17 04:44 | 6.88961 | 122.07555 | 19943 ft | 206 kts | 329° |
| 2026-04-17 04:44 | 6.90210 | 122.06840 | 19943 ft | 206 kts | 329° |
| 2026-04-17 04:44 | 6.91457 | 122.06129 | 19944 ft | 206 kts | 330° |
| 2026-04-17 04:44 | 6.92819 | 122.05685 | 19943 ft | 208 kts | 352° |
| 2026-04-17 04:45 | 6.94269 | 122.05742 | 19941 ft | 210 kts | 5° |
| 2026-04-17 04:45 | 6.95723 | 122.05908 | 19943 ft | 210 kts | 4° |
| 2026-04-17 04:45 | 6.97175 | 122.06066 | 19942 ft | 210 kts | 4° |
| 2026-04-17 04:45 | 6.98625 | 122.06227 | 19939 ft | 209 kts | 5° |
| 2026-04-17 04:46 | 7.00070 | 122.06389 | 19943 ft | 209 kts | 5° |
| 2026-04-17 04:46 | 7.01517 | 122.06546 | 19942 ft | 209 kts | 5° |
| 2026-04-17 04:46 | 7.02966 | 122.06707 | 19942 ft | 209 kts | 5° |
| 2026-04-17 04:46 | 7.04395 | 122.06865 | 19943 ft | 209 kts | 5° |
| 2026-04-17 04:47 | 7.05841 | 122.07025 | 19944 ft | 209 kts | 5° |
| 2026-04-17 04:47 | 7.07292 | 122.07186 | 19939 ft | 210 kts | 5° |
| 2026-04-17 04:47 | 7.08744 | 122.07346 | 19940 ft | 210 kts | 5° |
| 2026-04-17 04:47 | 7.10201 | 122.07508 | 19942 ft | 211 kts | 5° |
| 2026-04-17 04:48 | 7.11657 | 122.07670 | 19942 ft | 211 kts | 5° |
| 2026-04-17 04:48 | 7.13116 | 122.07831 | 19942 ft | 211 kts | 5° |
| 2026-04-17 04:48 | 7.14574 | 122.07991 | 19942 ft | 211 kts | 5° |
| 2026-04-17 04:48 | 7.16031 | 122.08153 | 19939 ft | 211 kts | 5° |
| 2026-04-17 04:49 | 7.17495 | 122.08315 | 19940 ft | 212 kts | 5° |
| 2026-04-17 04:49 | 7.18959 | 122.08478 | 19940 ft | 212 kts | 5° |
| 2026-04-17 04:49 | 7.20428 | 122.08640 | 19940 ft | 212 kts | 5° |
| 2026-04-17 04:49 | 7.21891 | 122.08801 | 19940 ft | 212 kts | 5° |
| 2026-04-17 04:50 | 7.23354 | 122.08963 | 19940 ft | 211 kts | 5° |
| 2026-04-17 04:50 | 7.24817 | 122.09126 | 19939 ft | 211 kts | 5° |
| 2026-04-17 04:50 | 7.26278 | 122.09287 | 19940 ft | 211 kts | 5° |
| 2026-04-17 04:50 | 7.27736 | 122.09449 | 19939 ft | 211 kts | 5° |
| 2026-04-17 04:51 | 7.29194 | 122.09611 | 19940 ft | 211 kts | 5° |
| 2026-04-17 04:51 | 7.30650 | 122.09771 | 19939 ft | 211 kts | 5° |
| 2026-04-17 04:51 | 7.32108 | 122.09933 | 19938 ft | 210 kts | 5° |
| 2026-04-17 04:51 | 7.33566 | 122.10094 | 19939 ft | 211 kts | 5° |
| 2026-04-17 04:52 | 7.35021 | 122.10255 | 19938 ft | 210 kts | 5° |
| 2026-04-17 04:52 | 7.36473 | 122.10416 | 19938 ft | 210 kts | 5° |
| 2026-04-17 04:52 | 7.37927 | 122.10578 | 19938 ft | 210 kts | 5° |
| 2026-04-17 04:52 | 7.39378 | 122.10739 | 19938 ft | 210 kts | 5° |
| 2026-04-17 04:53 | 7.40809 | 122.10897 | 19938 ft | 210 kts | 5° |
| 2026-04-17 04:53 | 7.42266 | 122.11059 | 19937 ft | 210 kts | 5° |
| 2026-04-17 04:53 | 7.43720 | 122.11221 | 19937 ft | 210 kts | 5° |
| 2026-04-17 04:55 | 7.53912 | 122.12352 | 19938 ft | 211 kts | 6° |
| 2026-04-17 04:55 | 7.55368 | 122.12513 | 19939 ft | 210 kts | 5° |
| 2026-04-17 04:55 | 7.56824 | 122.12675 | 19938 ft | 210 kts | 5° |
| 2026-04-17 04:56 | 7.58272 | 122.12836 | 19938 ft | 210 kts | 6° |
| 2026-04-17 04:56 | 7.59725 | 122.12997 | 19938 ft | 210 kts | 5° |
| 2026-04-17 04:56 | 7.61180 | 122.13158 | 19938 ft | 210 kts | 6° |
| 2026-04-17 04:56 | 7.62632 | 122.13320 | 19939 ft | 210 kts | 6° |
| 2026-04-17 04:57 | 7.64085 | 122.13481 | 19940 ft | 211 kts | 6° |
| 2026-04-17 04:57 | 7.65545 | 122.13641 | 19940 ft | 211 kts | 6° |
| 2026-04-17 04:57 | 7.67001 | 122.13804 | 19941 ft | 211 kts | 6° |
| 2026-04-17 04:57 | 7.68459 | 122.13968 | 19940 ft | 211 kts | 6° |
| 2026-04-17 04:58 | 7.69916 | 122.14129 | 19940 ft | 211 kts | 6° |
| 2026-04-17 04:58 | 7.71371 | 122.14290 | 19940 ft | 210 kts | 6° |
| 2026-04-17 04:58 | 7.72826 | 122.14451 | 19940 ft | 210 kts | 6° |
| 2026-04-17 04:58 | 7.74280 | 122.14613 | 19940 ft | 210 kts | 6° |
| 2026-04-17 04:59 | 7.75731 | 122.14775 | 19941 ft | 210 kts | 6° |
| 2026-04-17 04:59 | 7.77184 | 122.14936 | 19940 ft | 210 kts | 6° |
| 2026-04-17 04:59 | 7.78639 | 122.15097 | 19940 ft | 210 kts | 6° |
| 2026-04-17 04:59 | 7.80093 | 122.15259 | 19940 ft | 210 kts | 6° |
| 2026-04-17 05:00 | 7.81545 | 122.15421 | 19940 ft | 211 kts | 6° |
| 2026-04-17 05:00 | 7.82999 | 122.15582 | 19941 ft | 210 kts | 6° |
| 2026-04-17 05:00 | 7.84456 | 122.15744 | 19943 ft | 211 kts | 6° |
| 2026-04-17 05:00 | 7.85917 | 122.15906 | 19943 ft | 211 kts | 6° |
| 2026-04-17 05:01 | 7.87377 | 122.16069 | 19942 ft | 211 kts | 6° |
| 2026-04-17 05:01 | 7.88836 | 122.16231 | 19941 ft | 210 kts | 6° |
| 2026-04-17 05:01 | 7.90290 | 122.16393 | 19941 ft | 210 kts | 6° |
| 2026-04-17 05:01 | 7.91744 | 122.16554 | 19940 ft | 210 kts | 6° |
| 2026-04-17 05:02 | 7.93195 | 122.16715 | 19939 ft | 210 kts | 6° |
| 2026-04-17 05:02 | 7.94623 | 122.16875 | 19939 ft | 209 kts | 6° |
| 2026-04-17 05:02 | 7.96092 | 122.17038 | 19939 ft | 209 kts | 6° |
| 2026-04-17 05:02 | 7.97521 | 122.17197 | 19939 ft | 209 kts | 6° |
| 2026-04-17 05:03 | 7.98964 | 122.17357 | 19939 ft | 209 kts | 6° |
| 2026-04-17 05:03 | 8.00413 | 122.17518 | 19939 ft | 209 kts | 6° |
| 2026-04-17 05:03 | 8.01860 | 122.17679 | 19939 ft | 209 kts | 6° |
| 2026-04-17 05:03 | 8.03305 | 122.17840 | 19938 ft | 209 kts | 6° |
| 2026-04-17 05:04 | 8.04743 | 122.18000 | 19938 ft | 209 kts | 6° |
| 2026-04-17 05:04 | 8.06188 | 122.18162 | 19938 ft | 209 kts | 6° |
| 2026-04-17 05:04 | 8.07636 | 122.18322 | 19938 ft | 209 kts | 6° |
| 2026-04-17 05:04 | 8.09087 | 122.18484 | 19939 ft | 210 kts | 6° |
| 2026-04-17 05:05 | 8.10535 | 122.18644 | 19939 ft | 209 kts | 6° |
| 2026-04-17 05:05 | 8.11981 | 122.18806 | 19939 ft | 209 kts | 6° |
| 2026-04-17 05:05 | 8.13431 | 122.18966 | 19939 ft | 209 kts | 6° |
| 2026-04-17 05:05 | 8.14879 | 122.19128 | 19939 ft | 209 kts | 6° |
| 2026-04-17 05:06 | 8.16327 | 122.19290 | 19939 ft | 209 kts | 6° |
| 2026-04-17 05:06 | 8.17776 | 122.19451 | 19939 ft | 209 kts | 6° |
| 2026-04-17 05:06 | 8.19221 | 122.19611 | 19939 ft | 209 kts | 6° |
| 2026-04-17 05:06 | 8.20669 | 122.19773 | 19939 ft | 209 kts | 6° |
| 2026-04-17 05:07 | 8.22117 | 122.19934 | 19939 ft | 209 kts | 6° |
| 2026-04-17 05:07 | 8.23564 | 122.20095 | 19939 ft | 209 kts | 6° |
| 2026-04-17 05:07 | 8.25014 | 122.20256 | 19939 ft | 209 kts | 6° |
| 2026-04-17 05:07 | 8.26460 | 122.20418 | 19939 ft | 209 kts | 6° |
| 2026-04-17 05:08 | 8.27911 | 122.20579 | 19939 ft | 209 kts | 6° |
| 2026-04-17 05:08 | 8.29358 | 122.20741 | 19939 ft | 209 kts | 6° |
| 2026-04-17 05:08 | 8.30807 | 122.20901 | 19939 ft | 210 kts | 6° |
| 2026-04-17 05:08 | 8.31766 | 122.21008 | 19940 ft | 210 kts | 6° |
| 2026-04-17 05:09 | 8.33217 | 122.21171 | 19941 ft | 210 kts | 6° |
| 2026-04-17 05:09 | 8.34668 | 122.21332 | 19942 ft | 210 kts | 6° |
| 2026-04-17 05:09 | 8.36119 | 122.21494 | 19942 ft | 210 kts | 6° |
| 2026-04-17 05:09 | 8.37569 | 122.21655 | 19942 ft | 210 kts | 6° |
| 2026-04-17 05:10 | 8.39017 | 122.21818 | 19942 ft | 209 kts | 6° |
| 2026-04-17 05:10 | 8.40464 | 122.21978 | 19942 ft | 209 kts | 6° |
| 2026-04-17 05:10 | 8.41911 | 122.22139 | 19942 ft | 209 kts | 6° |
| 2026-04-17 05:10 | 8.43360 | 122.22300 | 19942 ft | 209 kts | 6° |
| 2026-04-17 05:11 | 8.44806 | 122.22462 | 19941 ft | 209 kts | 6° |
| 2026-04-17 05:11 | 8.46254 | 122.22624 | 19941 ft | 209 kts | 6° |
| 2026-04-17 05:11 | 8.47701 | 122.22786 | 19942 ft | 209 kts | 6° |
| 2026-04-17 05:11 | 8.49150 | 122.22946 | 19942 ft | 209 kts | 6° |
| 2026-04-17 05:12 | 8.50597 | 122.23108 | 19941 ft | 209 kts | 6° |
| 2026-04-17 05:12 | 8.52043 | 122.23268 | 19941 ft | 209 kts | 6° |
| 2026-04-17 05:12 | 8.53491 | 122.23431 | 19941 ft | 209 kts | 6° |
| 2026-04-17 05:12 | 8.54918 | 122.23590 | 19941 ft | 209 kts | 6° |
| 2026-04-17 05:13 | 8.56363 | 122.23751 | 19941 ft | 209 kts | 6° |
| 2026-04-17 05:13 | 8.57808 | 122.23913 | 19941 ft | 209 kts | 6° |
| 2026-04-17 05:13 | 8.59255 | 122.24075 | 19941 ft | 209 kts | 6° |
| 2026-04-17 05:13 | 8.60703 | 122.24235 | 19941 ft | 209 kts | 6° |
| 2026-04-17 05:14 | 8.62152 | 122.24397 | 19942 ft | 209 kts | 6° |
| 2026-04-17 05:14 | 8.63599 | 122.24558 | 19943 ft | 209 kts | 6° |
| 2026-04-17 05:14 | 8.65045 | 122.24720 | 19943 ft | 209 kts | 6° |
| 2026-04-17 05:14 | 8.66488 | 122.24881 | 19943 ft | 209 kts | 6° |
| 2026-04-17 05:15 | 8.67936 | 122.25041 | 19943 ft | 209 kts | 6° |
| 2026-04-17 05:15 | 8.69378 | 122.25203 | 19936 ft | 209 kts | 6° |
| 2026-04-17 05:15 | 8.70824 | 122.25365 | 19922 ft | 209 kts | 6° |
| 2026-04-17 05:15 | 8.72272 | 122.25526 | 19922 ft | 209 kts | 6° |
| 2026-04-17 05:16 | 8.73717 | 122.25688 | 19922 ft | 209 kts | 6° |
| 2026-04-17 05:16 | 8.75166 | 122.25850 | 19922 ft | 209 kts | 6° |
| 2026-04-17 05:16 | 8.76610 | 122.26011 | 19923 ft | 209 kts | 6° |
| 2026-04-17 05:16 | 8.78054 | 122.26172 | 19921 ft | 209 kts | 6° |
| 2026-04-17 05:17 | 8.79497 | 122.26333 | 19922 ft | 209 kts | 6° |
| 2026-04-17 05:17 | 8.80937 | 122.26495 | 19923 ft | 208 kts | 6° |
| 2026-04-17 05:17 | 8.82376 | 122.26656 | 19925 ft | 208 kts | 6° |
| 2026-04-17 05:17 | 8.83817 | 122.26816 | 19920 ft | 208 kts | 6° |
| 2026-04-17 05:18 | 8.85258 | 122.26977 | 19918 ft | 208 kts | 6° |
| 2026-04-17 05:18 | 8.86679 | 122.27135 | 19917 ft | 208 kts | 6° |
| 2026-04-17 05:18 | 8.88121 | 122.27296 | 19916 ft | 208 kts | 6° |
| 2026-04-17 05:18 | 8.89562 | 122.27458 | 19916 ft | 208 kts | 6° |
| 2026-04-17 05:19 | 8.91002 | 122.27619 | 19916 ft | 208 kts | 6° |
| 2026-04-17 05:19 | 8.92462 | 122.27782 | 19914 ft | 208 kts | 6° |
| 2026-04-17 05:19 | 8.93885 | 122.27941 | 19914 ft | 208 kts | 6° |
| 2026-04-17 05:19 | 8.95327 | 122.28103 | 19913 ft | 209 kts | 6° |
| 2026-04-17 05:20 | 8.96768 | 122.28264 | 19913 ft | 208 kts | 6° |
| 2026-04-17 05:20 | 8.98209 | 122.28425 | 19913 ft | 209 kts | 6° |
| 2026-04-17 05:20 | 8.99651 | 122.28586 | 19916 ft | 208 kts | 6° |
| 2026-04-17 05:20 | 9.01094 | 122.28747 | 19913 ft | 208 kts | 6° |
| 2026-04-17 05:21 | 9.02536 | 122.28909 | 19911 ft | 208 kts | 6° |
| 2026-04-17 05:21 | 9.03977 | 122.29070 | 19910 ft | 208 kts | 6° |
| 2026-04-17 05:21 | 9.05418 | 122.29231 | 19909 ft | 208 kts | 6° |
| 2026-04-17 05:21 | 9.06858 | 122.29391 | 19908 ft | 208 kts | 6° |
| 2026-04-17 05:22 | 9.08291 | 122.29552 | 19908 ft | 208 kts | 6° |
| 2026-04-17 05:22 | 9.09727 | 122.29714 | 19913 ft | 207 kts | 6° |
| 2026-04-17 05:22 | 9.11161 | 122.29874 | 19915 ft | 207 kts | 6° |
| 2026-04-17 05:22 | 9.12596 | 122.30033 | 19912 ft | 208 kts | 6° |
| 2026-04-17 05:23 | 9.14034 | 122.30195 | 19910 ft | 208 kts | 6° |
| 2026-04-17 05:23 | 9.15470 | 122.30355 | 19910 ft | 208 kts | 6° |
| 2026-04-17 05:23 | 9.16906 | 122.30516 | 19910 ft | 207 kts | 6° |
| 2026-04-17 05:23 | 9.18340 | 122.30677 | 19909 ft | 207 kts | 6° |
| 2026-04-17 05:24 | 9.19768 | 122.30837 | 19909 ft | 207 kts | 6° |
| 2026-04-17 05:24 | 9.21204 | 122.30997 | 19909 ft | 207 kts | 6° |
| 2026-04-17 05:24 | 9.22637 | 122.31157 | 19909 ft | 207 kts | 6° |
| 2026-04-17 05:24 | 9.24070 | 122.31318 | 19910 ft | 207 kts | 6° |
| 2026-04-17 05:25 | 9.25481 | 122.31476 | 19910 ft | 206 kts | 6° |
| 2026-04-17 05:25 | 9.26908 | 122.31636 | 19909 ft | 206 kts | 6° |
| 2026-04-17 05:25 | 9.28334 | 122.31796 | 19909 ft | 206 kts | 6° |
| 2026-04-17 05:25 | 9.29759 | 122.31955 | 19909 ft | 206 kts | 6° |
| 2026-04-17 05:26 | 9.31182 | 122.32114 | 19909 ft | 206 kts | 6° |
| 2026-04-17 05:26 | 9.32609 | 122.32274 | 19909 ft | 206 kts | 6° |
| 2026-04-17 05:26 | 9.34035 | 122.32435 | 19909 ft | 206 kts | 6° |
| 2026-04-17 05:26 | 9.35457 | 122.32594 | 19909 ft | 206 kts | 6° |
| 2026-04-17 05:27 | 9.36881 | 122.32753 | 19909 ft | 206 kts | 6° |
| 2026-04-17 05:27 | 9.38304 | 122.32912 | 19909 ft | 206 kts | 6° |
| 2026-04-17 05:27 | 9.39729 | 122.33071 | 19909 ft | 206 kts | 6° |
| 2026-04-17 05:27 | 9.41156 | 122.33232 | 19909 ft | 206 kts | 6° |
| 2026-04-17 05:28 | 9.42581 | 122.33392 | 19909 ft | 206 kts | 6° |
| 2026-04-17 05:28 | 9.44006 | 122.33552 | 19909 ft | 206 kts | 6° |
| 2026-04-17 05:28 | 9.45432 | 122.33711 | 19909 ft | 206 kts | 6° |
| 2026-04-17 05:28 | 9.46854 | 122.33871 | 19909 ft | 206 kts | 6° |
| 2026-04-17 05:29 | 9.48279 | 122.34031 | 19909 ft | 206 kts | 6° |
| 2026-04-17 05:29 | 9.49703 | 122.34191 | 19909 ft | 206 kts | 6° |
| 2026-04-17 05:29 | 9.51129 | 122.34350 | 19909 ft | 206 kts | 6° |
| 2026-04-17 05:29 | 9.52556 | 122.34511 | 19909 ft | 206 kts | 6° |
| 2026-04-17 05:30 | 9.53981 | 122.34670 | 19909 ft | 206 kts | 6° |
| 2026-04-17 05:30 | 9.55406 | 122.34830 | 19909 ft | 206 kts | 6° |
| 2026-04-17 05:30 | 9.56828 | 122.34990 | 19909 ft | 206 kts | 6° |
| 2026-04-17 05:30 | 9.58252 | 122.35151 | 19909 ft | 206 kts | 6° |
| 2026-04-17 05:31 | 9.59678 | 122.35310 | 19910 ft | 206 kts | 6° |
| 2026-04-17 05:31 | 9.61080 | 122.35466 | 19910 ft | 206 kts | 6° |
| 2026-04-17 05:31 | 9.62503 | 122.35626 | 19911 ft | 206 kts | 6° |
| 2026-04-17 05:31 | 9.63928 | 122.35786 | 19911 ft | 206 kts | 6° |
| 2026-04-17 05:32 | 9.65350 | 122.35946 | 19911 ft | 205 kts | 6° |
| 2026-04-17 05:32 | 9.66769 | 122.36106 | 19915 ft | 205 kts | 6° |
| 2026-04-17 05:32 | 9.68182 | 122.36264 | 19916 ft | 204 kts | 6° |
| 2026-04-17 05:32 | 9.69594 | 122.36422 | 19913 ft | 204 kts | 6° |
| 2026-04-17 05:33 | 9.71010 | 122.36582 | 19911 ft | 205 kts | 6° |
| 2026-04-17 05:33 | 9.72427 | 122.36741 | 19909 ft | 205 kts | 6° |
| 2026-04-17 05:33 | 9.73842 | 122.36899 | 19909 ft | 205 kts | 6° |
| 2026-04-17 05:33 | 9.75261 | 122.37057 | 19909 ft | 205 kts | 6° |
| 2026-04-17 05:34 | 9.76669 | 122.37214 | 19909 ft | 205 kts | 6° |
| 2026-04-17 05:34 | 9.78086 | 122.37374 | 19912 ft | 205 kts | 6° |
| 2026-04-17 05:34 | 9.79507 | 122.37532 | 19912 ft | 205 kts | 6° |
| 2026-04-17 05:34 | 9.80924 | 122.37690 | 19911 ft | 205 kts | 6° |
| 2026-04-17 05:35 | 9.82343 | 122.37849 | 19911 ft | 205 kts | 6° |
| 2026-04-17 05:35 | 9.83760 | 122.38008 | 19918 ft | 205 kts | 6° |
| 2026-04-17 05:35 | 9.85182 | 122.38167 | 19920 ft | 206 kts | 6° |
| 2026-04-17 05:35 | 9.86608 | 122.38327 | 19918 ft | 206 kts | 6° |
| 2026-04-17 05:36 | 9.88030 | 122.38487 | 19916 ft | 206 kts | 6° |
| 2026-04-17 05:36 | 9.89452 | 122.38646 | 19914 ft | 205 kts | 6° |
| 2026-04-17 05:36 | 9.90870 | 122.38804 | 19913 ft | 205 kts | 6° |
| 2026-04-17 05:36 | 9.92292 | 122.38963 | 19913 ft | 205 kts | 6° |
| 2026-04-17 05:37 | 9.93713 | 122.39122 | 19913 ft | 205 kts | 6° |
| 2026-04-17 05:37 | 9.95131 | 122.39281 | 19913 ft | 205 kts | 6° |
| 2026-04-17 05:37 | 9.96550 | 122.39439 | 19913 ft | 205 kts | 6° |
| 2026-04-17 05:37 | 9.97969 | 122.39599 | 19913 ft | 205 kts | 6° |
| 2026-04-17 05:38 | 9.99386 | 122.39758 | 19914 ft | 205 kts | 6° |
| 2026-04-17 05:38 | 10.00808 | 122.39918 | 19913 ft | 205 kts | 6° |
| 2026-04-17 05:38 | 10.02227 | 122.40077 | 19914 ft | 205 kts | 6° |
| 2026-04-17 05:38 | 10.03644 | 122.40235 | 19914 ft | 205 kts | 6° |
| 2026-04-17 05:39 | 10.05041 | 122.40391 | 19914 ft | 205 kts | 6° |
| 2026-04-17 05:39 | 10.06456 | 122.40550 | 19914 ft | 205 kts | 6° |
| 2026-04-17 05:39 | 10.07873 | 122.40709 | 19914 ft | 205 kts | 6° |
| 2026-04-17 05:39 | 10.09286 | 122.40867 | 19914 ft | 205 kts | 6° |
| 2026-04-17 05:40 | 10.10699 | 122.41026 | 19914 ft | 204 kts | 6° |
| 2026-04-17 05:40 | 10.12110 | 122.41184 | 19913 ft | 204 kts | 6° |
| 2026-04-17 05:40 | 10.13521 | 122.41342 | 19913 ft | 204 kts | 6° |
| 2026-04-17 05:40 | 10.14932 | 122.41500 | 19913 ft | 204 kts | 6° |
| 2026-04-17 05:41 | 10.16345 | 122.41659 | 19913 ft | 204 kts | 6° |
| 2026-04-17 05:41 | 10.17759 | 122.41818 | 19914 ft | 204 kts | 6° |
| 2026-04-17 05:41 | 10.19172 | 122.41976 | 19913 ft | 204 kts | 6° |
| 2026-04-17 05:41 | 10.20585 | 122.42135 | 19912 ft | 205 kts | 6° |
| 2026-04-17 05:42 | 10.22004 | 122.42293 | 19913 ft | 205 kts | 6° |
| 2026-04-17 05:42 | 10.23422 | 122.42452 | 19914 ft | 205 kts | 6° |
| 2026-04-17 05:42 | 10.24843 | 122.42612 | 19913 ft | 205 kts | 6° |
| 2026-04-17 05:42 | 10.26261 | 122.42772 | 19914 ft | 205 kts | 6° |
| 2026-04-17 05:43 | 10.27675 | 122.42930 | 19913 ft | 205 kts | 6° |
| 2026-04-17 05:43 | 10.29091 | 122.43089 | 19913 ft | 205 kts | 6° |
| 2026-04-17 05:43 | 10.30509 | 122.43248 | 19913 ft | 205 kts | 6° |
| 2026-04-17 05:43 | 10.31925 | 122.43407 | 19913 ft | 205 kts | 6° |
| 2026-04-17 05:44 | 10.33340 | 122.43566 | 19918 ft | 205 kts | 6° |
| 2026-04-17 05:44 | 10.34756 | 122.43725 | 19919 ft | 205 kts | 6° |
| 2026-04-17 05:44 | 10.36176 | 122.43884 | 19919 ft | 205 kts | 6° |
| 2026-04-17 05:44 | 10.37576 | 122.44042 | 19919 ft | 205 kts | 6° |
| 2026-04-17 05:45 | 10.38992 | 122.44201 | 19919 ft | 205 kts | 6° |
| 2026-04-17 05:45 | 10.40410 | 122.44360 | 19918 ft | 205 kts | 6° |
| 2026-04-17 05:45 | 10.41829 | 122.44519 | 19916 ft | 205 kts | 6° |
| 2026-04-17 05:45 | 10.43249 | 122.44679 | 19915 ft | 205 kts | 6° |
| 2026-04-17 05:46 | 10.44661 | 122.44838 | 19915 ft | 205 kts | 6° |
| 2026-04-17 05:46 | 10.46082 | 122.44997 | 19916 ft | 205 kts | 6° |
| 2026-04-17 05:46 | 10.47461 | 122.45151 | 19916 ft | 205 kts | 6° |
| 2026-04-17 05:46 | 10.48882 | 122.45311 | 19916 ft | 205 kts | 6° |
| 2026-04-17 05:47 | 10.50302 | 122.45471 | 19916 ft | 205 kts | 6° |
| 2026-04-17 05:47 | 10.51723 | 122.45630 | 19916 ft | 205 kts | 6° |
| 2026-04-17 05:47 | 10.53143 | 122.45789 | 19916 ft | 206 kts | 6° |
| 2026-04-17 05:47 | 10.54567 | 122.45950 | 19916 ft | 206 kts | 6° |
| 2026-04-17 05:48 | 10.55990 | 122.46110 | 19916 ft | 206 kts | 6° |
| 2026-04-17 05:48 | 10.57412 | 122.46269 | 19916 ft | 206 kts | 6° |
| 2026-04-17 05:48 | 10.58832 | 122.46428 | 19916 ft | 205 kts | 6° |
| 2026-04-17 05:48 | 10.60253 | 122.46588 | 19916 ft | 205 kts | 6° |
| 2026-04-17 05:49 | 10.61673 | 122.46748 | 19916 ft | 205 kts | 6° |
| 2026-04-17 05:49 | 10.63091 | 122.46908 | 19916 ft | 205 kts | 6° |
| 2026-04-17 05:49 | 10.64509 | 122.47067 | 19916 ft | 205 kts | 6° |
| 2026-04-17 05:49 | 10.65928 | 122.47227 | 19916 ft | 205 kts | 6° |
| 2026-04-17 05:50 | 10.67348 | 122.47386 | 19916 ft | 205 kts | 6° |
| 2026-04-17 05:50 | 10.68764 | 122.47546 | 19928 ft | 205 kts | 6° |
| 2026-04-17 05:50 | 10.70187 | 122.47706 | 19931 ft | 206 kts | 6° |
| 2026-04-17 05:50 | 10.71618 | 122.47867 | 19933 ft | 208 kts | 6° |
| 2026-04-17 05:51 | 10.73054 | 122.48028 | 19936 ft | 208 kts | 6° |
| 2026-04-17 05:51 | 10.74502 | 122.48190 | 19937 ft | 210 kts | 6° |
| 2026-04-17 05:51 | 10.75952 | 122.48354 | 19935 ft | 210 kts | 6° |
| 2026-04-17 05:51 | 10.77379 | 122.48514 | 19940 ft | 209 kts | 6° |
| 2026-04-17 05:52 | 10.78827 | 122.48678 | 19936 ft | 209 kts | 6° |
| 2026-04-17 05:52 | 10.80280 | 122.48841 | 19943 ft | 211 kts | 6° |
| 2026-04-17 05:52 | 10.81764 | 122.49008 | 19939 ft | 213 kts | 6° |
| 2026-04-17 05:52 | 10.83220 | 122.49012 | 19939 ft | 214 kts | 349° |
| 2026-04-17 05:53 | 10.84619 | 122.48470 | 19932 ft | 213 kts | 330° |
| 2026-04-17 05:53 | 10.85830 | 122.47643 | 19932 ft | 212 kts | 327° |
| 2026-04-17 05:53 | 10.87049 | 122.46812 | 19932 ft | 211 kts | 328° |
| 2026-04-17 05:53 | 10.88268 | 122.45982 | 19933 ft | 211 kts | 328° |
| 2026-04-17 05:54 | 10.89486 | 122.45151 | 19935 ft | 212 kts | 328° |
| 2026-04-17 05:54 | 10.90712 | 122.44316 | 19931 ft | 212 kts | 327° |
| 2026-04-17 05:54 | 10.91929 | 122.43482 | 19932 ft | 211 kts | 327° |
| 2026-04-17 05:54 | 10.93145 | 122.42651 | 19934 ft | 211 kts | 328° |
| 2026-04-17 05:55 | 10.94364 | 122.41817 | 19933 ft | 211 kts | 327° |
| 2026-04-17 05:55 | 10.95590 | 122.40982 | 19937 ft | 212 kts | 328° |
| 2026-04-17 05:55 | 10.96817 | 122.40144 | 19933 ft | 212 kts | 327° |
| 2026-04-17 05:55 | 10.98036 | 122.39309 | 19933 ft | 211 kts | 328° |
| 2026-04-17 05:56 | 10.99255 | 122.38478 | 19934 ft | 211 kts | 327° |
| 2026-04-17 05:56 | 11.00475 | 122.37644 | 19935 ft | 211 kts | 328° |
| 2026-04-17 05:56 | 11.01694 | 122.36807 | 19932 ft | 212 kts | 327° |
| 2026-04-17 05:56 | 11.02914 | 122.35976 | 19933 ft | 211 kts | 328° |
| 2026-04-17 05:57 | 11.04131 | 122.35148 | 19934 ft | 211 kts | 327° |
| 2026-04-17 05:57 | 11.05348 | 122.34315 | 19932 ft | 210 kts | 327° |
| 2026-04-17 05:57 | 11.06562 | 122.33484 | 19934 ft | 210 kts | 327° |
| 2026-04-17 05:57 | 11.07777 | 122.32654 | 19931 ft | 210 kts | 327° |
| 2026-04-17 05:58 | 11.08989 | 122.31823 | 19931 ft | 210 kts | 328° |
| 2026-04-17 05:58 | 11.10202 | 122.30996 | 19931 ft | 209 kts | 327° |
| 2026-04-17 05:58 | 11.11410 | 122.30169 | 19930 ft | 209 kts | 327° |
| 2026-04-17 05:59 | 11.13801 | 122.28532 | 19929 ft | 208 kts | 327° |
| 2026-04-17 05:59 | 11.15005 | 122.27709 | 19930 ft | 209 kts | 327° |
| 2026-04-17 05:59 | 11.16209 | 122.26885 | 19929 ft | 208 kts | 327° |
| 2026-04-17 05:59 | 11.17413 | 122.26061 | 19930 ft | 209 kts | 327° |
| 2026-04-17 06:00 | 11.18623 | 122.25234 | 19932 ft | 209 kts | 327° |
| 2026-04-17 06:00 | 11.19828 | 122.24410 | 19934 ft | 209 kts | 327° |
| 2026-04-17 06:00 | 11.21035 | 122.23583 | 19935 ft | 209 kts | 327° |
| 2026-04-17 06:00 | 11.22241 | 122.22757 | 19932 ft | 209 kts | 327° |
| 2026-04-17 06:01 | 11.23039 | 122.22210 | 19932 ft | 209 kts | 327° |
| 2026-04-17 06:01 | 11.24247 | 122.21385 | 19936 ft | 209 kts | 328° |
| 2026-04-17 06:01 | 11.25455 | 122.20558 | 19939 ft | 209 kts | 328° |
| 2026-04-17 06:01 | 11.26665 | 122.19728 | 19936 ft | 210 kts | 328° |
| 2026-04-17 06:02 | 11.27874 | 122.18900 | 19934 ft | 210 kts | 327° |
| 2026-04-17 06:02 | 11.29084 | 122.18071 | 19938 ft | 209 kts | 327° |
| 2026-04-17 06:02 | 11.30269 | 122.17259 | 19938 ft | 210 kts | 328° |
| 2026-04-17 06:02 | 11.31478 | 122.16432 | 19934 ft | 209 kts | 327° |
| 2026-04-17 06:03 | 11.32683 | 122.15607 | 19932 ft | 209 kts | 327° |
| 2026-04-17 06:03 | 11.33889 | 122.14778 | 19933 ft | 209 kts | 327° |
| 2026-04-17 06:03 | 11.35095 | 122.13953 | 19934 ft | 209 kts | 327° |
| 2026-04-17 06:03 | 11.36302 | 122.13125 | 19932 ft | 209 kts | 328° |
| 2026-04-17 06:04 | 11.37511 | 122.12298 | 19933 ft | 209 kts | 328° |
| 2026-04-17 06:04 | 11.38719 | 122.11471 | 19933 ft | 209 kts | 328° |
| 2026-04-17 06:04 | 11.39924 | 122.10642 | 19931 ft | 209 kts | 328° |
| 2026-04-17 06:04 | 11.41130 | 122.09816 | 19932 ft | 209 kts | 328° |
| 2026-04-17 06:05 | 11.42338 | 122.08989 | 19931 ft | 209 kts | 328° |
| 2026-04-17 06:05 | 11.43541 | 122.08162 | 19932 ft | 209 kts | 328° |
| 2026-04-17 06:05 | 11.44747 | 122.07336 | 19931 ft | 209 kts | 328° |
| 2026-04-17 06:05 | 11.45951 | 122.06509 | 19932 ft | 209 kts | 328° |
| 2026-04-17 06:06 | 11.47160 | 122.05680 | 19932 ft | 210 kts | 328° |
| 2026-04-17 06:06 | 11.48368 | 122.04852 | 19935 ft | 209 kts | 328° |
| 2026-04-17 06:06 | 11.49570 | 122.04027 | 19936 ft | 208 kts | 328° |
| 2026-04-17 06:06 | 11.50769 | 122.03204 | 19933 ft | 207 kts | 328° |
| 2026-04-17 06:07 | 11.51871 | 122.02447 | 19930 ft | 207 kts | 328° |
| 2026-04-17 06:07 | 11.53090 | 122.01611 | 19932 ft | 207 kts | 328° |
| 2026-04-17 06:07 | 11.54285 | 122.00791 | 19933 ft | 207 kts | 328° |
| 2026-04-17 06:07 | 11.55483 | 121.99969 | 19931 ft | 208 kts | 328° |
| 2026-04-17 06:08 | 11.56679 | 121.99148 | 19929 ft | 207 kts | 328° |
| 2026-04-17 06:08 | 11.57859 | 121.98337 | 19929 ft | 207 kts | 328° |
| 2026-04-17 06:08 | 11.59054 | 121.97516 | 19928 ft | 207 kts | 328° |
| 2026-04-17 06:08 | 11.60249 | 121.96696 | 19927 ft | 207 kts | 328° |
| 2026-04-17 06:09 | 11.61442 | 121.95876 | 19927 ft | 207 kts | 328° |
| 2026-04-17 06:09 | 11.62636 | 121.95056 | 19927 ft | 207 kts | 328° |
| 2026-04-17 06:09 | 11.63832 | 121.94234 | 19927 ft | 207 kts | 328° |
| 2026-04-17 06:09 | 11.65027 | 121.93412 | 19927 ft | 207 kts | 328° |
| 2026-04-17 06:10 | 11.66226 | 121.92589 | 19927 ft | 207 kts | 328° |
| 2026-04-17 06:10 | 11.67420 | 121.91768 | 19929 ft | 207 kts | 328° |
| 2026-04-17 06:10 | 11.68614 | 121.90948 | 19929 ft | 207 kts | 328° |
| 2026-04-17 06:10 | 11.69808 | 121.90127 | 19928 ft | 207 kts | 328° |
| 2026-04-17 06:11 | 11.71003 | 121.89306 | 19927 ft | 207 kts | 328° |
| 2026-04-17 06:11 | 11.72195 | 121.88487 | 19931 ft | 207 kts | 328° |
| 2026-04-17 06:11 | 11.73386 | 121.87667 | 19932 ft | 206 kts | 328° |
| 2026-04-17 06:11 | 11.74562 | 121.86859 | 19930 ft | 206 kts | 328° |
| 2026-04-17 06:12 | 11.75752 | 121.86039 | 19928 ft | 207 kts | 328° |
| 2026-04-17 06:12 | 11.76945 | 121.85219 | 19926 ft | 207 kts | 328° |
| 2026-04-17 06:12 | 11.78139 | 121.84399 | 19926 ft | 207 kts | 328° |
| 2026-04-17 06:12 | 11.79331 | 121.83579 | 19926 ft | 207 kts | 328° |
| 2026-04-17 06:13 | 11.80524 | 121.82757 | 19926 ft | 207 kts | 328° |
| 2026-04-17 06:13 | 11.81716 | 121.81938 | 19926 ft | 206 kts | 328° |
| 2026-04-17 06:13 | 11.82905 | 121.81119 | 19925 ft | 206 kts | 327° |
| 2026-04-17 06:13 | 11.84095 | 121.80299 | 19925 ft | 206 kts | 328° |
| 2026-04-17 06:14 | 11.85286 | 121.79480 | 19925 ft | 206 kts | 328° |
| 2026-04-17 06:14 | 11.86477 | 121.78660 | 19925 ft | 206 kts | 327° |
| 2026-04-17 06:14 | 11.87667 | 121.77840 | 19925 ft | 206 kts | 328° |
| 2026-04-17 06:14 | 11.88857 | 121.77023 | 19926 ft | 206 kts | 328° |
| 2026-04-17 06:15 | 11.90044 | 121.76205 | 19926 ft | 206 kts | 328° |
| 2026-04-17 06:15 | 11.91234 | 121.75384 | 19930 ft | 206 kts | 327° |
| 2026-04-17 06:15 | 11.92423 | 121.74565 | 19932 ft | 206 kts | 328° |
| 2026-04-17 06:15 | 11.93613 | 121.73746 | 19930 ft | 206 kts | 328° |
| 2026-04-17 06:16 | 11.94805 | 121.72925 | 19928 ft | 206 kts | 328° |
| 2026-04-17 06:16 | 11.95992 | 121.72108 | 19932 ft | 206 kts | 328° |
| 2026-04-17 06:16 | 11.97182 | 121.71288 | 19934 ft | 206 kts | 328° |
| 2026-04-17 06:16 | 11.98374 | 121.70466 | 19932 ft | 207 kts | 328° |
| 2026-04-17 06:17 | 11.99564 | 121.69645 | 19930 ft | 207 kts | 328° |
| 2026-04-17 06:17 | 12.00758 | 121.68823 | 19929 ft | 207 kts | 328° |
| 2026-04-17 06:17 | 12.01952 | 121.67999 | 19928 ft | 207 kts | 328° |
| 2026-04-17 06:17 | 12.03144 | 121.67177 | 19928 ft | 207 kts | 328° |
| 2026-04-17 06:18 | 12.04336 | 121.66355 | 19928 ft | 207 kts | 328° |
| 2026-04-17 06:18 | 12.05527 | 121.65534 | 19928 ft | 206 kts | 328° |
| 2026-04-17 06:18 | 12.06712 | 121.64718 | 19926 ft | 205 kts | 328° |
| 2026-04-17 06:18 | 12.07891 | 121.63905 | 19925 ft | 204 kts | 328° |
| 2026-04-17 06:19 | 12.09066 | 121.63094 | 19923 ft | 204 kts | 328° |
| 2026-04-17 06:19 | 12.10238 | 121.62285 | 19922 ft | 203 kts | 328° |
| 2026-04-17 06:19 | 12.11408 | 121.61478 | 19921 ft | 203 kts | 328° |
| 2026-04-17 06:19 | 12.12561 | 121.60682 | 19920 ft | 203 kts | 328° |
| 2026-04-17 06:20 | 12.13726 | 121.59878 | 19919 ft | 202 kts | 328° |
| 2026-04-17 06:20 | 12.14893 | 121.59072 | 19918 ft | 202 kts | 328° |
| 2026-04-17 06:20 | 12.16056 | 121.58270 | 19918 ft | 202 kts | 328° |
| 2026-04-17 06:20 | 12.17222 | 121.57465 | 19918 ft | 202 kts | 328° |
| 2026-04-17 06:21 | 12.18383 | 121.56664 | 19918 ft | 202 kts | 328° |
| 2026-04-17 06:21 | 12.19545 | 121.55862 | 19918 ft | 202 kts | 328° |
| 2026-04-17 06:21 | 12.20708 | 121.55057 | 19918 ft | 202 kts | 328° |
| 2026-04-17 06:21 | 12.21873 | 121.54254 | 19918 ft | 202 kts | 328° |
| 2026-04-17 06:22 | 12.23037 | 121.53449 | 19918 ft | 202 kts | 328° |
| 2026-04-17 06:22 | 12.24202 | 121.52644 | 19918 ft | 202 kts | 328° |
| 2026-04-17 06:22 | 12.25364 | 121.51841 | 19919 ft | 202 kts | 328° |
| 2026-04-17 06:22 | 12.26526 | 121.51039 | 19918 ft | 201 kts | 328° |
| 2026-04-17 06:23 | 12.27685 | 121.50237 | 19918 ft | 201 kts | 328° |
| 2026-04-17 06:23 | 12.28848 | 121.49434 | 19918 ft | 201 kts | 328° |
| 2026-04-17 06:23 | 12.30006 | 121.48634 | 19918 ft | 201 kts | 328° |
| 2026-04-17 06:23 | 12.31169 | 121.47830 | 19918 ft | 201 kts | 328° |
| 2026-04-17 06:24 | 12.32330 | 121.47029 | 19919 ft | 202 kts | 328° |
| 2026-04-17 06:24 | 12.33491 | 121.46225 | 19919 ft | 202 kts | 328° |
| 2026-04-17 06:24 | 12.34653 | 121.45421 | 19919 ft | 202 kts | 328° |
| 2026-04-17 06:24 | 12.35813 | 121.44619 | 19918 ft | 201 kts | 328° |
| 2026-04-17 06:25 | 12.36972 | 121.43817 | 19920 ft | 202 kts | 328° |
| 2026-04-17 06:25 | 12.38139 | 121.43011 | 19902 ft | 203 kts | 328° |
| 2026-04-17 06:25 | 12.39311 | 121.42201 | 19903 ft | 203 kts | 328° |
| 2026-04-17 06:25 | 12.40480 | 121.41390 | 19903 ft | 203 kts | 328° |
| 2026-04-17 06:26 | 12.41634 | 121.40592 | 19906 ft | 203 kts | 328° |
| 2026-04-17 06:26 | 12.42808 | 121.39781 | 19902 ft | 204 kts | 328° |
| 2026-04-17 06:26 | 12.43982 | 121.38967 | 19904 ft | 204 kts | 328° |
| 2026-04-17 06:26 | 12.45157 | 121.38153 | 19904 ft | 204 kts | 329° |
| 2026-04-17 06:27 | 12.46334 | 121.37342 | 19904 ft | 204 kts | 329° |
| 2026-04-17 06:27 | 12.47507 | 121.36528 | 19903 ft | 204 kts | 328° |
| 2026-04-17 06:27 | 12.48678 | 121.35718 | 19894 ft | 203 kts | 328° |
| 2026-04-17 06:27 | 12.49851 | 121.34904 | 19893 ft | 203 kts | 328° |
| 2026-04-17 06:28 | 12.51015 | 121.34096 | 19891 ft | 203 kts | 328° |
| 2026-04-17 06:28 | 12.52184 | 121.33288 | 19891 ft | 202 kts | 329° |
| 2026-04-17 06:28 | 12.53349 | 121.32482 | 19890 ft | 202 kts | 329° |
| 2026-04-17 06:28 | 12.54517 | 121.31676 | 19891 ft | 203 kts | 328° |
| 2026-04-17 06:29 | 12.55681 | 121.30866 | 19890 ft | 202 kts | 328° |
| 2026-04-17 06:29 | 12.56845 | 121.30060 | 19895 ft | 202 kts | 329° |
| 2026-04-17 06:29 | 12.58012 | 121.29253 | 19896 ft | 203 kts | 328° |
| 2026-04-17 06:29 | 12.59179 | 121.28441 | 19895 ft | 203 kts | 328° |
| 2026-04-17 06:30 | 12.60346 | 121.27632 | 19894 ft | 203 kts | 328° |
| 2026-04-17 06:30 | 12.61517 | 121.26822 | 19897 ft | 203 kts | 328° |
| 2026-04-17 06:30 | 12.62689 | 121.26010 | 19896 ft | 204 kts | 328° |
| 2026-04-17 06:30 | 12.63864 | 121.25194 | 19891 ft | 204 kts | 328° |
| 2026-04-17 06:31 | 12.65039 | 121.24380 | 19887 ft | 204 kts | 328° |
| 2026-04-17 06:31 | 12.66211 | 121.23567 | 19892 ft | 204 kts | 328° |
| 2026-04-17 06:31 | 12.67383 | 121.22754 | 19888 ft | 203 kts | 328° |
| 2026-04-17 06:31 | 12.68557 | 121.21940 | 19887 ft | 204 kts | 328° |
| 2026-04-17 06:32 | 12.69735 | 121.21121 | 19896 ft | 205 kts | 328° |
| 2026-04-17 06:32 | 12.70915 | 121.20304 | 19893 ft | 205 kts | 328° |
| 2026-04-17 06:32 | 12.72092 | 121.19487 | 19889 ft | 204 kts | 328° |
| 2026-04-17 06:32 | 12.73271 | 121.18668 | 19891 ft | 205 kts | 328° |
| 2026-04-17 06:33 | 12.74454 | 121.17848 | 19890 ft | 206 kts | 328° |
| 2026-04-17 06:33 | 12.75640 | 121.17025 | 19891 ft | 206 kts | 328° |
| 2026-04-17 06:33 | 12.76824 | 121.16203 | 19891 ft | 205 kts | 328° |
| 2026-04-17 06:33 | 12.77990 | 121.15391 | 19891 ft | 205 kts | 329° |
| 2026-04-17 06:34 | 12.79169 | 121.14573 | 19896 ft | 205 kts | 328° |
| 2026-04-17 06:34 | 12.80349 | 121.13753 | 19888 ft | 204 kts | 328° |
| 2026-04-17 06:34 | 12.81519 | 121.12940 | 19884 ft | 202 kts | 328° |
| 2026-04-17 06:34 | 12.82683 | 121.12134 | 19887 ft | 202 kts | 329° |
| 2026-04-17 06:35 | 12.83842 | 121.11331 | 19885 ft | 201 kts | 328° |
| 2026-04-17 06:35 | 12.84994 | 121.10526 | 19882 ft | 201 kts | 329° |
| 2026-04-17 06:35 | 12.86156 | 121.09718 | 19883 ft | 202 kts | 329° |
| 2026-04-17 06:35 | 12.87318 | 121.08913 | 19882 ft | 202 kts | 328° |
| 2026-04-17 06:36 | 12.88486 | 121.08101 | 19882 ft | 202 kts | 328° |
| 2026-04-17 06:36 | 12.89644 | 121.07295 | 19888 ft | 201 kts | 329° |
| 2026-04-17 06:36 | 12.90803 | 121.06490 | 19880 ft | 201 kts | 328° |
| 2026-04-17 06:36 | 12.91954 | 121.05690 | 19882 ft | 199 kts | 329° |
| 2026-04-17 06:37 | 12.93108 | 121.04889 | 19885 ft | 200 kts | 328° |
| 2026-04-17 06:37 | 12.94260 | 121.04087 | 19882 ft | 200 kts | 328° |
| 2026-04-17 06:37 | 12.95416 | 121.03282 | 19882 ft | 201 kts | 329° |
| 2026-04-17 06:37 | 12.96573 | 121.02478 | 19882 ft | 201 kts | 328° |
| 2026-04-17 06:38 | 12.97731 | 121.01672 | 19881 ft | 201 kts | 329° |
| 2026-04-17 06:38 | 12.98892 | 121.00864 | 19889 ft | 202 kts | 328° |
| 2026-04-17 06:38 | 13.00053 | 121.00056 | 19883 ft | 202 kts | 329° |
| 2026-04-17 06:38 | 13.01219 | 120.99245 | 19884 ft | 203 kts | 329° |
| 2026-04-17 06:39 | 13.02386 | 120.98433 | 19889 ft | 204 kts | 329° |
| 2026-04-17 06:39 | 13.03555 | 120.97618 | 19897 ft | 203 kts | 329° |
| 2026-04-17 06:39 | 13.04725 | 120.96805 | 19890 ft | 203 kts | 328° |
| 2026-04-17 06:39 | 13.05890 | 120.95992 | 19891 ft | 202 kts | 329° |
| 2026-04-17 06:40 | 13.07053 | 120.95185 | 19890 ft | 202 kts | 328° |
| 2026-04-17 06:40 | 13.08212 | 120.94378 | 19886 ft | 201 kts | 328° |
| 2026-04-17 06:40 | 13.09364 | 120.93575 | 19891 ft | 200 kts | 329° |
| 2026-04-17 06:40 | 13.10518 | 120.92770 | 19891 ft | 201 kts | 329° |
| 2026-04-17 06:41 | 13.11678 | 120.91963 | 19893 ft | 202 kts | 329° |
| 2026-04-17 06:41 | 13.12841 | 120.91153 | 19898 ft | 202 kts | 329° |
| 2026-04-17 06:41 | 13.14001 | 120.90345 | 19895 ft | 200 kts | 328° |
| 2026-04-17 06:41 | 13.15153 | 120.89540 | 19896 ft | 201 kts | 329° |
| 2026-04-17 06:42 | 13.16294 | 120.88746 | 19893 ft | 201 kts | 328° |
| 2026-04-17 06:42 | 13.17451 | 120.87940 | 19891 ft | 201 kts | 328° |
| 2026-04-17 06:42 | 13.18609 | 120.87132 | 19892 ft | 202 kts | 329° |
| 2026-04-17 06:42 | 13.19770 | 120.86323 | 19893 ft | 202 kts | 329° |
| 2026-04-17 06:43 | 13.20935 | 120.85510 | 19894 ft | 203 kts | 328° |
| 2026-04-17 06:43 | 13.22120 | 120.84684 | 19894 ft | 204 kts | 328° |
| 2026-04-17 06:43 | 13.23266 | 120.83882 | 19890 ft | 200 kts | 328° |
| 2026-04-17 06:43 | 13.24408 | 120.83087 | 19888 ft | 197 kts | 328° |
| 2026-04-17 06:44 | 13.25536 | 120.82302 | 19890 ft | 196 kts | 329° |
| 2026-04-17 06:44 | 13.26661 | 120.81515 | 19892 ft | 196 kts | 329° |
| 2026-04-17 06:44 | 13.27796 | 120.80723 | 19891 ft | 198 kts | 329° |
| 2026-04-17 06:44 | 13.28938 | 120.79928 | 19896 ft | 199 kts | 329° |
| 2026-04-17 06:45 | 13.30085 | 120.79128 | 19895 ft | 200 kts | 328° |
| 2026-04-17 06:45 | 13.31238 | 120.78321 | 19899 ft | 201 kts | 329° |
| 2026-04-17 06:45 | 13.32398 | 120.77512 | 19900 ft | 202 kts | 329° |
| 2026-04-17 06:45 | 13.33558 | 120.76705 | 19900 ft | 201 kts | 329° |
| 2026-04-17 06:46 | 13.34713 | 120.75897 | 19899 ft | 201 kts | 329° |
| 2026-04-17 06:46 | 13.35870 | 120.75089 | 19898 ft | 200 kts | 329° |
| 2026-04-17 06:46 | 13.37024 | 120.74281 | 19901 ft | 201 kts | 329° |
| 2026-04-17 06:46 | 13.38185 | 120.73470 | 19901 ft | 202 kts | 329° |
| 2026-04-17 06:47 | 13.39351 | 120.72656 | 19903 ft | 203 kts | 329° |
| 2026-04-17 06:47 | 13.40518 | 120.71841 | 19904 ft | 203 kts | 329° |
| 2026-04-17 06:47 | 13.41683 | 120.71027 | 19906 ft | 203 kts | 329° |
| 2026-04-17 06:47 | 13.42851 | 120.70211 | 19905 ft | 203 kts | 329° |
| 2026-04-17 06:48 | 13.44000 | 120.69409 | 19906 ft | 203 kts | 329° |
| 2026-04-17 06:48 | 13.45182 | 120.68582 | 19906 ft | 203 kts | 329° |
| 2026-04-17 06:48 | 13.46349 | 120.67765 | 19905 ft | 203 kts | 329° |
| 2026-04-17 06:48 | 13.47504 | 120.66958 | 19903 ft | 204 kts | 329° |
| 2026-04-17 06:49 | 13.48680 | 120.66136 | 19903 ft | 205 kts | 329° |
| 2026-04-17 06:49 | 13.49855 | 120.65315 | 19905 ft | 204 kts | 329° |
| 2026-04-17 06:49 | 13.51028 | 120.64494 | 19906 ft | 204 kts | 328° |
| 2026-04-17 06:49 | 13.52199 | 120.63675 | 19902 ft | 203 kts | 329° |
| 2026-04-17 06:50 | 13.53365 | 120.62858 | 19900 ft | 203 kts | 329° |
| 2026-04-17 06:50 | 13.54534 | 120.62041 | 19899 ft | 203 kts | 329° |
| 2026-04-17 06:50 | 13.55701 | 120.61225 | 19898 ft | 203 kts | 329° |
| 2026-04-17 06:50 | 13.56867 | 120.60408 | 19898 ft | 203 kts | 329° |
| 2026-04-17 06:51 | 13.57634 | 120.59871 | 19897 ft | 203 kts | 329° |
| 2026-04-17 06:51 | 13.58801 | 120.59055 | 19897 ft | 203 kts | 329° |
| 2026-04-17 06:52 | 13.62970 | 120.57841 | 19903 ft | 198 kts | 354° |
| 2026-04-17 06:52 | 13.64339 | 120.57663 | 19908 ft | 198 kts | 355° |
| 2026-04-17 06:52 | 13.65707 | 120.57486 | 19910 ft | 198 kts | 355° |
| 2026-04-17 06:52 | 13.67080 | 120.57311 | 19908 ft | 198 kts | 355° |
| 2026-04-17 06:53 | 13.68448 | 120.57135 | 19904 ft | 198 kts | 355° |
| 2026-04-17 06:53 | 13.69817 | 120.56958 | 19908 ft | 198 kts | 355° |
| 2026-04-17 06:53 | 13.71184 | 120.56783 | 19908 ft | 198 kts | 355° |
| 2026-04-17 06:53 | 13.72553 | 120.56607 | 19906 ft | 198 kts | 355° |
| 2026-04-17 06:54 | 13.73924 | 120.56431 | 19904 ft | 198 kts | 355° |
| 2026-04-17 06:54 | 13.75291 | 120.56255 | 19907 ft | 198 kts | 355° |
| 2026-04-17 06:54 | 13.76658 | 120.56079 | 19909 ft | 198 kts | 355° |
| 2026-04-17 06:54 | 13.78025 | 120.55903 | 19906 ft | 198 kts | 355° |
| 2026-04-17 06:55 | 13.79394 | 120.55727 | 19904 ft | 199 kts | 355° |
| 2026-04-17 06:55 | 13.80766 | 120.55550 | 19903 ft | 199 kts | 355° |
| 2026-04-17 06:55 | 13.82142 | 120.55372 | 19903 ft | 199 kts | 355° |
| 2026-04-17 06:55 | 13.83516 | 120.55195 | 19903 ft | 199 kts | 355° |
| 2026-04-17 06:56 | 13.84887 | 120.55020 | 19903 ft | 199 kts | 355° |
| 2026-04-17 06:56 | 13.86257 | 120.54844 | 19905 ft | 199 kts | 355° |
| 2026-04-17 06:56 | 13.87627 | 120.54667 | 19906 ft | 198 kts | 355° |
| 2026-04-17 06:56 | 13.88993 | 120.54491 | 19904 ft | 198 kts | 355° |
| 2026-04-17 06:57 | 13.90365 | 120.54313 | 19904 ft | 198 kts | 355° |
| 2026-04-17 06:57 | 13.91733 | 120.54138 | 19907 ft | 198 kts | 355° |
| 2026-04-17 06:57 | 13.93103 | 120.53961 | 19909 ft | 198 kts | 355° |
| 2026-04-17 06:57 | 13.94473 | 120.53785 | 19906 ft | 199 kts | 355° |
| 2026-04-17 06:58 | 13.95841 | 120.53609 | 19904 ft | 199 kts | 355° |
| 2026-04-17 06:58 | 13.97211 | 120.53432 | 19903 ft | 199 kts | 355° |
| 2026-04-17 06:58 | 13.98585 | 120.53255 | 19902 ft | 199 kts | 355° |
| 2026-04-17 06:58 | 13.99961 | 120.53077 | 19903 ft | 199 kts | 355° |
| 2026-04-17 06:59 | 14.01337 | 120.52900 | 19903 ft | 200 kts | 355° |
| 2026-04-17 06:59 | 14.02716 | 120.52722 | 19903 ft | 199 kts | 355° |
| 2026-04-17 06:59 | 14.04093 | 120.52544 | 19903 ft | 199 kts | 355° |
| 2026-04-17 06:59 | 14.05401 | 120.52376 | 19904 ft | 199 kts | 355° |
| 2026-04-17 07:00 | 14.06777 | 120.52198 | 19906 ft | 199 kts | 355° |
| 2026-04-17 07:00 | 14.08138 | 120.52023 | 19907 ft | 199 kts | 355° |
| 2026-04-17 07:00 | 14.09512 | 120.51845 | 19907 ft | 199 kts | 355° |
| 2026-04-17 07:00 | 14.10891 | 120.51667 | 19907 ft | 199 kts | 355° |
| 2026-04-17 07:01 | 14.12265 | 120.51490 | 19907 ft | 199 kts | 355° |
| 2026-04-17 07:01 | 14.13642 | 120.51312 | 19908 ft | 199 kts | 355° |
| 2026-04-17 07:01 | 14.15015 | 120.51135 | 19908 ft | 199 kts | 355° |
| 2026-04-17 07:01 | 14.16392 | 120.50957 | 19908 ft | 199 kts | 355° |
| 2026-04-17 07:02 | 14.17768 | 120.50779 | 19909 ft | 199 kts | 355° |
| 2026-04-17 07:02 | 14.19143 | 120.50602 | 19913 ft | 199 kts | 355° |
| 2026-04-17 07:02 | 14.20518 | 120.50474 | 19912 ft | 197 kts | 6° |
| 2026-04-17 07:02 | 14.21745 | 120.51036 | 19916 ft | 197 kts | 44° |
| 2026-04-17 07:03 | 14.22480 | 120.52225 | 19881 ft | 200 kts | 61° |
| 2026-04-17 07:03 | 14.23235 | 120.53467 | 19648 ft | 209 kts | 52° |
| 2026-04-17 07:03 | 14.24180 | 120.54641 | 19371 ft | 217 kts | 47° |
| 2026-04-17 07:03 | 14.25184 | 120.55824 | 19068 ft | 222 kts | 48° |
| 2026-04-17 07:04 | 14.26196 | 120.57047 | 18781 ft | 226 kts | 49° |
| 2026-04-17 07:04 | 14.27213 | 120.58289 | 18478 ft | 228 kts | 48° |
| 2026-04-17 07:04 | 14.28236 | 120.59537 | 18174 ft | 228 kts | 48° |
| 2026-04-17 07:04 | 14.29260 | 120.60784 | 17868 ft | 227 kts | 48° |
| 2026-04-17 07:05 | 14.30273 | 120.62017 | 17567 ft | 225 kts | 48° |
| 2026-04-17 07:05 | 14.31280 | 120.63242 | 17264 ft | 223 kts | 48° |
| 2026-04-17 07:05 | 14.32282 | 120.64463 | 16954 ft | 222 kts | 48° |
| 2026-04-17 07:05 | 14.33276 | 120.65673 | 16668 ft | 221 kts | 48° |
| 2026-04-17 07:06 | 14.34270 | 120.66884 | 16374 ft | 220 kts | 49° |
| 2026-04-17 07:06 | 14.35258 | 120.68087 | 16081 ft | 219 kts | 49° |
| 2026-04-17 07:06 | 14.36242 | 120.69286 | 15791 ft | 219 kts | 49° |
| 2026-04-17 07:06 | 14.37222 | 120.70480 | 15498 ft | 218 kts | 49° |
| 2026-04-17 07:07 | 14.38197 | 120.71668 | 15209 ft | 217 kts | 49° |
| 2026-04-17 07:07 | 14.39170 | 120.72855 | 14922 ft | 216 kts | 49° |
| 2026-04-17 07:07 | 14.40144 | 120.74042 | 14634 ft | 216 kts | 49° |
| 2026-04-17 07:07 | 14.41107 | 120.75218 | 14394 ft | 213 kts | 49° |
| 2026-04-17 07:08 | 14.42062 | 120.76381 | 14137 ft | 212 kts | 49° |
| 2026-04-17 07:08 | 14.43013 | 120.77542 | 13869 ft | 212 kts | 49° |
| 2026-04-17 07:08 | 14.43969 | 120.78707 | 13588 ft | 212 kts | 49° |
| 2026-04-17 07:08 | 14.44921 | 120.79869 | 13301 ft | 212 kts | 49° |
| 2026-04-17 07:09 | 14.45872 | 120.81029 | 13023 ft | 212 kts | 49° |
| 2026-04-17 07:09 | 14.46822 | 120.82189 | 12743 ft | 211 kts | 50° |
| 2026-04-17 07:09 | 14.47743 | 120.83312 | 12468 ft | 211 kts | 50° |
| 2026-04-17 07:09 | 14.48700 | 120.84480 | 12184 ft | 210 kts | 50° |
| 2026-04-17 07:10 | 14.49632 | 120.85619 | 11910 ft | 210 kts | 50° |
| 2026-04-17 07:10 | 14.50266 | 120.86394 | 11710 ft | 209 kts | 50° |
| 2026-04-17 07:10 | 14.51163 | 120.87490 | 11459 ft | 209 kts | 50° |
| 2026-04-17 07:10 | 14.52101 | 120.88635 | 11179 ft | 209 kts | 50° |
| 2026-04-17 07:11 | 14.53049 | 120.89793 | 10899 ft | 208 kts | 50° |
| 2026-04-17 07:11 | 14.53972 | 120.90920 | 10627 ft | 208 kts | 50° |
| 2026-04-17 07:11 | 14.54903 | 120.92057 | 10351 ft | 207 kts | 50° |
| 2026-04-17 07:11 | 14.55827 | 120.93187 | 10077 ft | 205 kts | 50° |
| 2026-04-17 07:12 | 14.56747 | 120.94313 | 9810 ft | 205 kts | 50° |
| 2026-04-17 07:12 | 14.57663 | 120.95432 | 9557 ft | 203 kts | 50° |
| 2026-04-17 07:12 | 14.58571 | 120.96542 | 9328 ft | 202 kts | 50° |
| 2026-04-17 07:12 | 14.59476 | 120.97648 | 9101 ft | 201 kts | 50° |
| 2026-04-17 07:13 | 14.60350 | 120.98716 | 8883 ft | 201 kts | 50° |
| 2026-04-17 07:13 | 14.61278 | 120.99850 | 8656 ft | 200 kts | 50° |
| 2026-04-17 07:13 | 14.61884 | 121.00593 | 8505 ft | 200 kts | 50° |
| 2026-04-17 07:13 | 14.63069 | 121.02044 | 8209 ft | 199 kts | 50° |
| 2026-04-17 07:14 | 14.63964 | 121.03138 | 7982 ft | 200 kts | 50° |
| 2026-04-17 07:14 | 14.64571 | 121.03881 | 7797 ft | 200 kts | 50° |
| 2026-04-17 07:14 | 14.65765 | 121.05343 | 7433 ft | 201 kts | 50° |
| 2026-04-17 07:14 | 14.66364 | 121.06076 | 7250 ft | 201 kts | 50° |
| 2026-04-17 07:15 | 14.67262 | 121.07176 | 7017 ft | 200 kts | 50° |
| 2026-04-17 07:15 | 14.68158 | 121.08272 | 6765 ft | 199 kts | 50° |
| 2026-04-17 07:15 | 14.69055 | 121.09371 | 6470 ft | 200 kts | 50° |
| 2026-04-17 07:15 | 14.69692 | 121.10630 | 6166 ft | 201 kts | 80° |
| 2026-04-17 07:16 | 14.69491 | 121.12035 | 5852 ft | 202 kts | 117° |
| 2026-04-17 07:16 | 14.68515 | 121.13040 | 5553 ft | 200 kts | 154° |
| 2026-04-17 07:16 | 14.67166 | 121.13241 | 5261 ft | 198 kts | 192° |
| 2026-04-17 07:16 | 14.65930 | 121.12753 | 5223 ft | 186 kts | 193° |
| 2026-04-17 07:17 | 14.64685 | 121.12894 | 5212 ft | 179 kts | 161° |
| 2026-04-17 07:17 | 14.63523 | 121.13337 | 5151 ft | 179 kts | 160° |
| 2026-04-17 07:17 | 14.61124 | 121.14255 | 4750 ft | 188 kts | 160° |
| 2026-04-17 07:18 | 14.59889 | 121.14728 | 4503 ft | 190 kts | 160° |
| 2026-04-17 07:18 | 14.58649 | 121.15201 | 4263 ft | 190 kts | 162° |
| 2026-04-17 07:18 | 14.57402 | 121.15188 | 4048 ft | 186 kts | 209° |
| 2026-04-17 07:18 | 14.56616 | 121.14173 | 3812 ft | 185 kts | 249° |
| 2026-04-17 07:19 | 14.56246 | 121.12895 | 3428 ft | 184 kts | 257° |
| 2026-04-17 07:19 | 14.55938 | 121.11649 | 2976 ft | 166 kts | 253° |
| 2026-04-17 07:19 | 14.55558 | 121.10591 | 2474 ft | 151 kts | 248° |
| 2026-04-17 07:19 | 14.55133 | 121.09639 | 2044 ft | 144 kts | 243° |
| 2026-04-17 07:20 | 14.54658 | 121.08758 | 1674 ft | 139 kts | 239° |
| 2026-04-17 07:20 | 14.54210 | 121.07944 | 1331 ft | 127 kts | 239° |
| 2026-04-17 07:20 | 14.53764 | 121.07182 | 1076 ft | 121 kts | 240° |
| 2026-04-17 07:20 | 14.53346 | 121.06439 | 894 ft | 118 kts | 242° |
| 2026-04-17 07:21 | 14.52941 | 121.05706 | 732 ft | 117 kts | 242° |
| 2026-04-17 07:21 | 14.52548 | 121.04978 | 581 ft | 112 kts | 242° |
| 2026-04-17 07:21 | 14.52171 | 121.04301 | 424 ft | 106 kts | 240° |
| 2026-04-17 07:21 | 14.51804 | 121.03655 | 281 ft | 103 kts | 242° |
| 2026-04-17 07:22 | 14.51456 | 121.03019 | 125 ft | 100 kts | 242° |
| 2026-04-17 07:22 | 14.51135 | 121.02437 | 67 ft | 81 kts | 240° |
| 2026-04-17 07:22 | 14.50951 | 121.02100 | 65 ft | 20 kts | 245° |
| 2026-04-17 07:22 | 14.50943 | 121.02016 | 60 ft | 12 kts | 300° |
| 2026-04-17 07:23 | 14.50999 | 121.01956 | 58 ft | 13 kts | 314° |
| 2026-04-17 07:23 | 14.51068 | 121.01885 | 64 ft | 13 kts | 315° |
| 2026-04-17 07:23 | 14.51138 | 121.01814 | 64 ft | 15 kts | 315° |
| 2026-04-17 07:23 | 14.51211 | 121.01738 | 62 ft | 11 kts | 314° |
| 2026-04-17 07:24 | 14.51269 | 121.01737 | 60 ft | 9 kts | 46° |
| 2026-04-17 07:24 | 14.51325 | 121.01725 | 63 ft | 13 kts | 314° |
| 2026-04-17 07:24 | 14.51407 | 121.01641 | 60 ft | 20 kts | 315° |
| 2026-04-17 07:24 | 14.51520 | 121.01523 | 63 ft | 26 kts | 315° |
| 2026-04-17 07:25 | 14.51604 | 121.01436 | 63 ft | 14 kts | 315° |
| 2026-04-17 07:25 | 14.51688 | 121.01350 | 59 ft | 20 kts | 315° |
| 2026-04-17 07:25 | 14.51795 | 121.01240 | 61 ft | 25 kts | 315° |
| 2026-04-17 07:25 | 14.51913 | 121.01119 | 61 ft | 15 kts | 314° |
| 2026-04-17 07:26 | 14.52001 | 121.01028 | 63 ft | 21 kts | 314° |
| 2026-04-17 07:26 | 14.52117 | 121.00908 | 61 ft | 27 kts | 315° |
| 2026-04-17 07:26 | 14.52224 | 121.00798 | 59 ft | 14 kts | 315° |
| 2026-04-17 07:26 | 14.52298 | 121.00721 | 63 ft | 16 kts | 315° |
| 2026-04-17 07:27 | 14.52373 | 121.00643 | 64 ft | 16 kts | 315° |
| 2026-04-17 07:27 | 14.52458 | 121.00556 | 61 ft | 14 kts | 314° |
| 2026-04-17 07:27 | 14.52531 | 121.00480 | 57 ft | 15 kts | 310° |
| 2026-04-17 07:27 | 14.52583 | 121.00405 | 64 ft | 7 kts | 288° |
| 2026-04-17 07:28 | 14.52590 | 121.00349 | 60 ft | 10 kts | 279° |
| 2026-04-17 07:28 | 14.52602 | 121.00280 | 60 ft | 7 kts | 305° |
| 2026-04-17 07:28 | 14.52658 | 121.00281 | 60 ft | 7 kts | 9° |
| 2026-04-17 07:28 | 14.52705 | 121.00289 | 64 ft | 5 kts | 12° |
| 2026-04-17 07:29 | 14.52729 | 121.00321 | 64 ft | 6 kts | 32° |
| 2026-04-17 07:29 | 14.52737 | 121.00324 | 64 ft | 0 kts | 1° |